<?xml version="1.0" encoding="UTF-8" standalone="no" ?>
<gpx xmlns="http://www.topografix.com/GPX/1/1" xmlns:xsi="http://www.w3.org/2001/XMLSchema-instance" xsi:schemaLocation="http://www.topografix.com/GPX/1/1 http://www.topografix.com/GPX/1/1/gpx.xsd" version="1.1" creator="VisuGPX - https://www.visugpx.com">
  <metadata>
    <name>La grotte des fées-Leucate</name>
    <desc><![CDATA[grp_trc:]]></desc>
  </metadata>
  <trk>
    <name><![CDATA[30 sept. 2022]]></name>
    <cmt><![CDATA[09:40:12]]></cmt>
    <desc><![CDATA[comment ...]]></desc>
    <trkseg>
      <trkpt lat="42.90311" lon="3.03093">
        <ele>-49</ele>
        <time>2022-09-30T07:40:12Z</time>
      </trkpt>
      <trkpt lat="42.90311" lon="3.03093">
        <ele>-48</ele>
        <time>2022-09-30T07:40:14Z</time>
      </trkpt>
      <trkpt lat="42.90309" lon="3.03094">
        <ele>-41</ele>
        <time>2022-09-30T07:40:32Z</time>
      </trkpt>
      <trkpt lat="42.90308" lon="3.03093">
        <ele>-39</ele>
        <time>2022-09-30T07:40:35Z</time>
      </trkpt>
      <trkpt lat="42.90308" lon="3.03091">
        <ele>-26</ele>
        <time>2022-09-30T07:41:15Z</time>
      </trkpt>
      <trkpt lat="42.90307" lon="3.03091">
        <ele>-23</ele>
        <time>2022-09-30T07:41:29Z</time>
      </trkpt>
      <trkpt lat="42.90305" lon="3.03092">
        <ele>-22</ele>
        <time>2022-09-30T07:41:31Z</time>
      </trkpt>
      <trkpt lat="42.90291" lon="3.03102">
        <ele>-17</ele>
        <time>2022-09-30T07:41:54Z</time>
      </trkpt>
      <trkpt lat="42.90289" lon="3.03102">
        <ele>-17</ele>
        <time>2022-09-30T07:41:56Z</time>
      </trkpt>
      <trkpt lat="42.90282" lon="3.03105">
        <ele>-15</ele>
        <time>2022-09-30T07:42:05Z</time>
      </trkpt>
      <trkpt lat="42.90281" lon="3.03105">
        <ele>-15</ele>
        <time>2022-09-30T07:42:07Z</time>
      </trkpt>
      <trkpt lat="42.90276" lon="3.03106">
        <ele>-14</ele>
        <time>2022-09-30T07:42:13Z</time>
      </trkpt>
      <trkpt lat="42.9027" lon="3.03111">
        <ele>-12</ele>
        <time>2022-09-30T07:42:21Z</time>
      </trkpt>
      <trkpt lat="42.90268" lon="3.03112">
        <ele>-12</ele>
        <time>2022-09-30T07:42:23Z</time>
      </trkpt>
      <trkpt lat="42.90266" lon="3.03113">
        <ele>-12</ele>
        <time>2022-09-30T07:42:25Z</time>
      </trkpt>
      <trkpt lat="42.90262" lon="3.03115">
        <ele>-11</ele>
        <time>2022-09-30T07:42:29Z</time>
      </trkpt>
      <trkpt lat="42.90259" lon="3.03117">
        <ele>-10</ele>
        <time>2022-09-30T07:42:33Z</time>
      </trkpt>
      <trkpt lat="42.90256" lon="3.0312">
        <ele>-9</ele>
        <time>2022-09-30T07:42:38Z</time>
      </trkpt>
      <trkpt lat="42.90251" lon="3.0312">
        <ele>-9</ele>
        <time>2022-09-30T07:42:42Z</time>
      </trkpt>
      <trkpt lat="42.90248" lon="3.03123">
        <ele>-8</ele>
        <time>2022-09-30T07:42:44Z</time>
      </trkpt>
      <trkpt lat="42.90246" lon="3.03122">
        <ele>-8</ele>
        <time>2022-09-30T07:42:46Z</time>
      </trkpt>
      <trkpt lat="42.90244" lon="3.03123">
        <ele>-8</ele>
        <time>2022-09-30T07:42:49Z</time>
      </trkpt>
      <trkpt lat="42.9024" lon="3.03125">
        <ele>-7</ele>
        <time>2022-09-30T07:42:55Z</time>
      </trkpt>
      <trkpt lat="42.90235" lon="3.0313">
        <ele>-6</ele>
        <time>2022-09-30T07:43:01Z</time>
      </trkpt>
      <trkpt lat="42.90233" lon="3.03131">
        <ele>-6</ele>
        <time>2022-09-30T07:43:03Z</time>
      </trkpt>
      <trkpt lat="42.9023" lon="3.03133">
        <ele>-5</ele>
        <time>2022-09-30T07:43:08Z</time>
      </trkpt>
      <trkpt lat="42.90223" lon="3.03139">
        <ele>-5</ele>
        <time>2022-09-30T07:43:15Z</time>
      </trkpt>
      <trkpt lat="42.90221" lon="3.03145">
        <ele>-4</ele>
        <time>2022-09-30T07:43:20Z</time>
      </trkpt>
      <trkpt lat="42.90219" lon="3.03149">
        <ele>-4</ele>
        <time>2022-09-30T07:43:23Z</time>
      </trkpt>
      <trkpt lat="42.90218" lon="3.03151">
        <ele>-4</ele>
        <time>2022-09-30T07:43:25Z</time>
      </trkpt>
      <trkpt lat="42.90216" lon="3.03152">
        <ele>-4</ele>
        <time>2022-09-30T07:43:27Z</time>
      </trkpt>
      <trkpt lat="42.90211" lon="3.03149">
        <ele>-3</ele>
        <time>2022-09-30T07:43:33Z</time>
      </trkpt>
      <trkpt lat="42.90209" lon="3.03147">
        <ele>-3</ele>
        <time>2022-09-30T07:43:36Z</time>
      </trkpt>
      <trkpt lat="42.90205" lon="3.03147">
        <ele>-3</ele>
        <time>2022-09-30T07:43:42Z</time>
      </trkpt>
      <trkpt lat="42.90203" lon="3.03147">
        <ele>-2</ele>
        <time>2022-09-30T07:43:44Z</time>
      </trkpt>
      <trkpt lat="42.90202" lon="3.03147">
        <ele>-2</ele>
        <time>2022-09-30T07:43:46Z</time>
      </trkpt>
      <trkpt lat="42.902" lon="3.03146">
        <ele>-2</ele>
        <time>2022-09-30T07:43:48Z</time>
      </trkpt>
      <trkpt lat="42.90196" lon="3.03146">
        <ele>-2</ele>
        <time>2022-09-30T07:43:53Z</time>
      </trkpt>
      <trkpt lat="42.9019" lon="3.03143">
        <ele>-1</ele>
        <time>2022-09-30T07:44:04Z</time>
      </trkpt>
      <trkpt lat="42.90187" lon="3.03141">
        <ele>-1</ele>
        <time>2022-09-30T07:44:08Z</time>
      </trkpt>
      <trkpt lat="42.90185" lon="3.0314">
        <ele>-1</ele>
        <time>2022-09-30T07:44:10Z</time>
      </trkpt>
      <trkpt lat="42.90184" lon="3.0314">
        <ele>-1</ele>
        <time>2022-09-30T07:44:12Z</time>
      </trkpt>
      <trkpt lat="42.9018" lon="3.03136">
        <ele>-1</ele>
        <time>2022-09-30T07:44:19Z</time>
      </trkpt>
      <trkpt lat="42.90162" lon="3.03129">
        <ele>16.3</ele>
        <time>2022-09-30T07:44:34Z</time>
      </trkpt>
      <trkpt lat="42.9016" lon="3.03128">
        <ele>16.3</ele>
        <time>2022-09-30T07:44:37Z</time>
      </trkpt>
      <trkpt lat="42.90155" lon="3.03124">
        <ele>1</ele>
        <time>2022-09-30T07:44:42Z</time>
      </trkpt>
      <trkpt lat="42.90153" lon="3.03123">
        <ele>1</ele>
        <time>2022-09-30T07:44:45Z</time>
      </trkpt>
      <trkpt lat="42.90151" lon="3.03124">
        <ele>1</ele>
        <time>2022-09-30T07:44:47Z</time>
      </trkpt>
      <trkpt lat="42.90149" lon="3.03122">
        <ele>1</ele>
        <time>2022-09-30T07:44:49Z</time>
      </trkpt>
      <trkpt lat="42.90147" lon="3.03122">
        <ele>1</ele>
        <time>2022-09-30T07:44:51Z</time>
      </trkpt>
      <trkpt lat="42.90146" lon="3.03121">
        <ele>1</ele>
        <time>2022-09-30T07:44:53Z</time>
      </trkpt>
      <trkpt lat="42.90144" lon="3.03119">
        <ele>1</ele>
        <time>2022-09-30T07:44:55Z</time>
      </trkpt>
      <trkpt lat="42.90142" lon="3.03117">
        <ele>2</ele>
        <time>2022-09-30T07:44:57Z</time>
      </trkpt>
      <trkpt lat="42.90139" lon="3.03116">
        <ele>2</ele>
        <time>2022-09-30T07:44:59Z</time>
      </trkpt>
      <trkpt lat="42.90137" lon="3.03116">
        <ele>2</ele>
        <time>2022-09-30T07:45:02Z</time>
      </trkpt>
      <trkpt lat="42.90134" lon="3.03115">
        <ele>2</ele>
        <time>2022-09-30T07:45:05Z</time>
      </trkpt>
      <trkpt lat="42.90132" lon="3.03113">
        <ele>2</ele>
        <time>2022-09-30T07:45:07Z</time>
      </trkpt>
      <trkpt lat="42.9013" lon="3.03113">
        <ele>2</ele>
        <time>2022-09-30T07:45:10Z</time>
      </trkpt>
      <trkpt lat="42.90128" lon="3.03112">
        <ele>2</ele>
        <time>2022-09-30T07:45:12Z</time>
      </trkpt>
      <trkpt lat="42.90126" lon="3.03111">
        <ele>3</ele>
        <time>2022-09-30T07:45:14Z</time>
      </trkpt>
      <trkpt lat="42.90124" lon="3.0311">
        <ele>3</ele>
        <time>2022-09-30T07:45:16Z</time>
      </trkpt>
      <trkpt lat="42.90122" lon="3.03108">
        <ele>3</ele>
        <time>2022-09-30T07:45:20Z</time>
      </trkpt>
      <trkpt lat="42.90116" lon="3.03107">
        <ele>3</ele>
        <time>2022-09-30T07:45:26Z</time>
      </trkpt>
      <trkpt lat="42.90114" lon="3.03106">
        <ele>3</ele>
        <time>2022-09-30T07:45:27Z</time>
      </trkpt>
      <trkpt lat="42.90112" lon="3.03104">
        <ele>3</ele>
        <time>2022-09-30T07:45:29Z</time>
      </trkpt>
      <trkpt lat="42.90109" lon="3.03103">
        <ele>3</ele>
        <time>2022-09-30T07:45:31Z</time>
      </trkpt>
      <trkpt lat="42.90106" lon="3.031">
        <ele>4</ele>
        <time>2022-09-30T07:45:35Z</time>
      </trkpt>
      <trkpt lat="42.90104" lon="3.03099">
        <ele>4</ele>
        <time>2022-09-30T07:45:37Z</time>
      </trkpt>
      <trkpt lat="42.90103" lon="3.03098">
        <ele>4</ele>
        <time>2022-09-30T07:45:40Z</time>
      </trkpt>
      <trkpt lat="42.90094" lon="3.03094">
        <ele>4</ele>
        <time>2022-09-30T07:45:48Z</time>
      </trkpt>
      <trkpt lat="42.90092" lon="3.03093">
        <ele>4</ele>
        <time>2022-09-30T07:45:50Z</time>
      </trkpt>
      <trkpt lat="42.90091" lon="3.03093">
        <ele>4</ele>
        <time>2022-09-30T07:45:52Z</time>
      </trkpt>
      <trkpt lat="42.90087" lon="3.03091">
        <ele>4</ele>
        <time>2022-09-30T07:45:56Z</time>
      </trkpt>
      <trkpt lat="42.90086" lon="3.0309">
        <ele>4</ele>
        <time>2022-09-30T07:45:58Z</time>
      </trkpt>
      <trkpt lat="42.90084" lon="3.03089">
        <ele>4</ele>
        <time>2022-09-30T07:46:01Z</time>
      </trkpt>
      <trkpt lat="42.90083" lon="3.03088">
        <ele>5</ele>
        <time>2022-09-30T07:46:04Z</time>
      </trkpt>
      <trkpt lat="42.90082" lon="3.03086">
        <ele>5</ele>
        <time>2022-09-30T07:46:06Z</time>
      </trkpt>
      <trkpt lat="42.90081" lon="3.03084">
        <ele>5</ele>
        <time>2022-09-30T07:46:08Z</time>
      </trkpt>
      <trkpt lat="42.9008" lon="3.03083">
        <ele>5</ele>
        <time>2022-09-30T07:46:10Z</time>
      </trkpt>
      <trkpt lat="42.90076" lon="3.03078">
        <ele>5</ele>
        <time>2022-09-30T07:46:16Z</time>
      </trkpt>
      <trkpt lat="42.90074" lon="3.03076">
        <ele>5</ele>
        <time>2022-09-30T07:46:18Z</time>
      </trkpt>
      <trkpt lat="42.90072" lon="3.03074">
        <ele>5</ele>
        <time>2022-09-30T07:46:20Z</time>
      </trkpt>
      <trkpt lat="42.90068" lon="3.0307">
        <ele>6</ele>
        <time>2022-09-30T07:46:26Z</time>
      </trkpt>
      <trkpt lat="42.90066" lon="3.03068">
        <ele>6</ele>
        <time>2022-09-30T07:46:28Z</time>
      </trkpt>
      <trkpt lat="42.90064" lon="3.03067">
        <ele>6</ele>
        <time>2022-09-30T07:46:31Z</time>
      </trkpt>
      <trkpt lat="42.90061" lon="3.03063">
        <ele>6</ele>
        <time>2022-09-30T07:46:35Z</time>
      </trkpt>
      <trkpt lat="42.9006" lon="3.0306">
        <ele>6</ele>
        <time>2022-09-30T07:46:37Z</time>
      </trkpt>
      <trkpt lat="42.90059" lon="3.03057">
        <ele>6</ele>
        <time>2022-09-30T07:46:40Z</time>
      </trkpt>
      <trkpt lat="42.90058" lon="3.03056">
        <ele>6</ele>
        <time>2022-09-30T07:46:43Z</time>
      </trkpt>
      <trkpt lat="42.90057" lon="3.03055">
        <ele>6</ele>
        <time>2022-09-30T07:46:45Z</time>
      </trkpt>
      <trkpt lat="42.90053" lon="3.03049">
        <ele>6</ele>
        <time>2022-09-30T07:46:51Z</time>
      </trkpt>
      <trkpt lat="42.90052" lon="3.03046">
        <ele>6</ele>
        <time>2022-09-30T07:46:53Z</time>
      </trkpt>
      <trkpt lat="42.90051" lon="3.03045">
        <ele>6</ele>
        <time>2022-09-30T07:46:56Z</time>
      </trkpt>
      <trkpt lat="42.90048" lon="3.03041">
        <ele>5</ele>
        <time>2022-09-30T07:47:02Z</time>
      </trkpt>
      <trkpt lat="42.90045" lon="3.03038">
        <ele>5</ele>
        <time>2022-09-30T07:47:06Z</time>
      </trkpt>
      <trkpt lat="42.9004" lon="3.03035">
        <ele>5</ele>
        <time>2022-09-30T07:47:10Z</time>
      </trkpt>
      <trkpt lat="42.90039" lon="3.03033">
        <ele>5</ele>
        <time>2022-09-30T07:47:12Z</time>
      </trkpt>
      <trkpt lat="42.90038" lon="3.03032">
        <ele>5</ele>
        <time>2022-09-30T07:47:15Z</time>
      </trkpt>
      <trkpt lat="42.90025" lon="3.03016">
        <ele>5</ele>
        <time>2022-09-30T07:47:30Z</time>
      </trkpt>
      <trkpt lat="42.90021" lon="3.03012">
        <ele>5</ele>
        <time>2022-09-30T07:47:37Z</time>
      </trkpt>
      <trkpt lat="42.90008" lon="3.02996">
        <ele>4</ele>
        <time>2022-09-30T07:47:54Z</time>
      </trkpt>
      <trkpt lat="42.90007" lon="3.02995">
        <ele>4</ele>
        <time>2022-09-30T07:47:55Z</time>
      </trkpt>
      <trkpt lat="42.90005" lon="3.0299">
        <ele>4</ele>
        <time>2022-09-30T07:47:59Z</time>
      </trkpt>
      <trkpt lat="42.90003" lon="3.02988">
        <ele>4</ele>
        <time>2022-09-30T07:48:01Z</time>
      </trkpt>
      <trkpt lat="42.90002" lon="3.02986">
        <ele>4</ele>
        <time>2022-09-30T07:48:03Z</time>
      </trkpt>
      <trkpt lat="42.90001" lon="3.02984">
        <ele>4</ele>
        <time>2022-09-30T07:48:05Z</time>
      </trkpt>
      <trkpt lat="42.89997" lon="3.02977">
        <ele>4</ele>
        <time>2022-09-30T07:48:12Z</time>
      </trkpt>
      <trkpt lat="42.89991" lon="3.0297">
        <ele>4</ele>
        <time>2022-09-30T07:48:21Z</time>
      </trkpt>
      <trkpt lat="42.89991" lon="3.02968">
        <ele>3</ele>
        <time>2022-09-30T07:48:23Z</time>
      </trkpt>
      <trkpt lat="42.8999" lon="3.02965">
        <ele>3</ele>
        <time>2022-09-30T07:48:25Z</time>
      </trkpt>
      <trkpt lat="42.8999" lon="3.02963">
        <ele>3</ele>
        <time>2022-09-30T07:48:27Z</time>
      </trkpt>
      <trkpt lat="42.89989" lon="3.0296">
        <ele>3</ele>
        <time>2022-09-30T07:48:29Z</time>
      </trkpt>
      <trkpt lat="42.89988" lon="3.02958">
        <ele>3</ele>
        <time>2022-09-30T07:48:31Z</time>
      </trkpt>
      <trkpt lat="42.89985" lon="3.02955">
        <ele>3</ele>
        <time>2022-09-30T07:48:35Z</time>
      </trkpt>
      <trkpt lat="42.89983" lon="3.02953">
        <ele>3</ele>
        <time>2022-09-30T07:48:37Z</time>
      </trkpt>
      <trkpt lat="42.8998" lon="3.0295">
        <ele>3</ele>
        <time>2022-09-30T07:48:41Z</time>
      </trkpt>
      <trkpt lat="42.89979" lon="3.02949">
        <ele>3</ele>
        <time>2022-09-30T07:48:43Z</time>
      </trkpt>
      <trkpt lat="42.89978" lon="3.02947">
        <ele>2</ele>
        <time>2022-09-30T07:48:46Z</time>
      </trkpt>
      <trkpt lat="42.89976" lon="3.02945">
        <ele>2</ele>
        <time>2022-09-30T07:48:48Z</time>
      </trkpt>
      <trkpt lat="42.89977" lon="3.02943">
        <ele>2</ele>
        <time>2022-09-30T07:48:53Z</time>
      </trkpt>
      <trkpt lat="42.89977" lon="3.02941">
        <ele>2</ele>
        <time>2022-09-30T07:48:56Z</time>
      </trkpt>
      <trkpt lat="42.89978" lon="3.0294">
        <ele>1</ele>
        <time>2022-09-30T07:49:32Z</time>
      </trkpt>
      <trkpt lat="42.89976" lon="3.02939">
        <ele>1</ele>
        <time>2022-09-30T07:49:34Z</time>
      </trkpt>
      <trkpt lat="42.89973" lon="3.02935">
        <ele>1</ele>
        <time>2022-09-30T07:49:37Z</time>
      </trkpt>
      <trkpt lat="42.89971" lon="3.02935">
        <ele>1</ele>
        <time>2022-09-30T07:49:38Z</time>
      </trkpt>
      <trkpt lat="42.89969" lon="3.02932">
        <ele>1</ele>
        <time>2022-09-30T07:49:41Z</time>
      </trkpt>
      <trkpt lat="42.89967" lon="3.02931">
        <ele>1</ele>
        <time>2022-09-30T07:49:42Z</time>
      </trkpt>
      <trkpt lat="42.89966" lon="3.02929">
        <ele>1</ele>
        <time>2022-09-30T07:49:43Z</time>
      </trkpt>
      <trkpt lat="42.8996" lon="3.0292">
        <ele>1</ele>
        <time>2022-09-30T07:49:54Z</time>
      </trkpt>
      <trkpt lat="42.89959" lon="3.02918">
        <ele>1</ele>
        <time>2022-09-30T07:49:56Z</time>
      </trkpt>
      <trkpt lat="42.89958" lon="3.02916">
        <ele>1</ele>
        <time>2022-09-30T07:49:57Z</time>
      </trkpt>
      <trkpt lat="42.89958" lon="3.02914">
        <ele>1</ele>
        <time>2022-09-30T07:49:59Z</time>
      </trkpt>
      <trkpt lat="42.89958" lon="3.02912">
        <ele>1</ele>
        <time>2022-09-30T07:50:01Z</time>
      </trkpt>
      <trkpt lat="42.89957" lon="3.02907">
        <ele>1</ele>
        <time>2022-09-30T07:50:04Z</time>
      </trkpt>
      <trkpt lat="42.89957" lon="3.02905">
        <ele>1</ele>
        <time>2022-09-30T07:50:06Z</time>
      </trkpt>
      <trkpt lat="42.89956" lon="3.02896">
        <ele>1</ele>
        <time>2022-09-30T07:50:12Z</time>
      </trkpt>
      <trkpt lat="42.89956" lon="3.02894">
        <ele>1</ele>
        <time>2022-09-30T07:50:14Z</time>
      </trkpt>
      <trkpt lat="42.89955" lon="3.02891">
        <ele>1</ele>
        <time>2022-09-30T07:50:17Z</time>
      </trkpt>
      <trkpt lat="42.89957" lon="3.02886">
        <ele>4</ele>
        <time>2022-09-30T07:50:22Z</time>
      </trkpt>
      <trkpt lat="42.89957" lon="3.02884">
        <ele>4</ele>
        <time>2022-09-30T07:50:23Z</time>
      </trkpt>
      <trkpt lat="42.89957" lon="3.0288">
        <ele>4</ele>
        <time>2022-09-30T07:50:25Z</time>
      </trkpt>
      <trkpt lat="42.89957" lon="3.02878">
        <ele>4</ele>
        <time>2022-09-30T07:50:28Z</time>
      </trkpt>
      <trkpt lat="42.89956" lon="3.02873">
        <ele>4</ele>
        <time>2022-09-30T07:50:32Z</time>
      </trkpt>
      <trkpt lat="42.89946" lon="3.0286">
        <ele>3.9</ele>
        <time>2022-09-30T07:50:47Z</time>
      </trkpt>
      <trkpt lat="42.89945" lon="3.02858">
        <ele>3.9</ele>
        <time>2022-09-30T07:50:49Z</time>
      </trkpt>
      <trkpt lat="42.89944" lon="3.02856">
        <ele>3.8</ele>
        <time>2022-09-30T07:50:51Z</time>
      </trkpt>
      <trkpt lat="42.89939" lon="3.02851">
        <ele>3.5</ele>
        <time>2022-09-30T07:50:57Z</time>
      </trkpt>
      <trkpt lat="42.89937" lon="3.0285">
        <ele>-1</ele>
        <time>2022-09-30T07:50:59Z</time>
      </trkpt>
      <trkpt lat="42.89935" lon="3.02848">
        <ele>-1</ele>
        <time>2022-09-30T07:51:01Z</time>
      </trkpt>
      <trkpt lat="42.89934" lon="3.02846">
        <ele>-1</ele>
        <time>2022-09-30T07:51:03Z</time>
      </trkpt>
      <trkpt lat="42.89932" lon="3.02845">
        <ele>-1</ele>
        <time>2022-09-30T07:51:05Z</time>
      </trkpt>
      <trkpt lat="42.89919" lon="3.02832">
        <ele>-1</ele>
        <time>2022-09-30T07:51:20Z</time>
      </trkpt>
      <trkpt lat="42.89918" lon="3.02831">
        <ele>-1</ele>
        <time>2022-09-30T07:51:22Z</time>
      </trkpt>
      <trkpt lat="42.89909" lon="3.0282">
        <ele>-1</ele>
        <time>2022-09-30T07:51:32Z</time>
      </trkpt>
      <trkpt lat="42.89908" lon="3.02818">
        <ele>-1</ele>
        <time>2022-09-30T07:51:33Z</time>
      </trkpt>
      <trkpt lat="42.89906" lon="3.02816">
        <ele>-1</ele>
        <time>2022-09-30T07:51:35Z</time>
      </trkpt>
      <trkpt lat="42.89905" lon="3.02814">
        <ele>-1</ele>
        <time>2022-09-30T07:51:37Z</time>
      </trkpt>
      <trkpt lat="42.89898" lon="3.02807">
        <ele>-1</ele>
        <time>2022-09-30T07:51:46Z</time>
      </trkpt>
      <trkpt lat="42.89889" lon="3.02793">
        <ele>-1</ele>
        <time>2022-09-30T07:51:59Z</time>
      </trkpt>
      <trkpt lat="42.89889" lon="3.02791">
        <ele>-1</ele>
        <time>2022-09-30T07:52:01Z</time>
      </trkpt>
      <trkpt lat="42.89881" lon="3.02784">
        <ele>-2</ele>
        <time>2022-09-30T07:52:10Z</time>
      </trkpt>
      <trkpt lat="42.8988" lon="3.02783">
        <ele>-2</ele>
        <time>2022-09-30T07:52:11Z</time>
      </trkpt>
      <trkpt lat="42.89879" lon="3.02782">
        <ele>-2</ele>
        <time>2022-09-30T07:52:12Z</time>
      </trkpt>
      <trkpt lat="42.89875" lon="3.02777">
        <ele>-2</ele>
        <time>2022-09-30T07:52:16Z</time>
      </trkpt>
      <trkpt lat="42.89872" lon="3.02774">
        <ele>-2</ele>
        <time>2022-09-30T07:52:19Z</time>
      </trkpt>
      <trkpt lat="42.89868" lon="3.02776">
        <ele>-2</ele>
        <time>2022-09-30T07:52:23Z</time>
      </trkpt>
      <trkpt lat="42.89865" lon="3.02775">
        <ele>-2</ele>
        <time>2022-09-30T07:52:25Z</time>
      </trkpt>
      <trkpt lat="42.89864" lon="3.02771">
        <ele>-2</ele>
        <time>2022-09-30T07:52:27Z</time>
      </trkpt>
      <trkpt lat="42.89863" lon="3.0277">
        <ele>-2</ele>
        <time>2022-09-30T07:52:33Z</time>
      </trkpt>
      <trkpt lat="42.89862" lon="3.02772">
        <ele>-2</ele>
        <time>2022-09-30T07:52:36Z</time>
      </trkpt>
      <trkpt lat="42.89859" lon="3.02775">
        <ele>-2</ele>
        <time>2022-09-30T07:52:40Z</time>
      </trkpt>
      <trkpt lat="42.89852" lon="3.02785">
        <ele>-2</ele>
        <time>2022-09-30T07:52:51Z</time>
      </trkpt>
      <trkpt lat="42.89836" lon="3.02791">
        <ele>-2</ele>
        <time>2022-09-30T07:53:07Z</time>
      </trkpt>
      <trkpt lat="42.89835" lon="3.02791">
        <ele>-2</ele>
        <time>2022-09-30T07:53:11Z</time>
      </trkpt>
      <trkpt lat="42.89834" lon="3.02792">
        <ele>-2</ele>
        <time>2022-09-30T07:53:21Z</time>
      </trkpt>
      <trkpt lat="42.8983" lon="3.02793">
        <ele>-2</ele>
        <time>2022-09-30T07:53:33Z</time>
      </trkpt>
      <trkpt lat="42.89828" lon="3.02793">
        <ele>-2</ele>
        <time>2022-09-30T07:53:35Z</time>
      </trkpt>
      <trkpt lat="42.89827" lon="3.02793">
        <ele>-2</ele>
        <time>2022-09-30T07:53:37Z</time>
      </trkpt>
      <trkpt lat="42.89825" lon="3.02794">
        <ele>-2</ele>
        <time>2022-09-30T07:53:39Z</time>
      </trkpt>
      <trkpt lat="42.89821" lon="3.02794">
        <ele>-2</ele>
        <time>2022-09-30T07:53:43Z</time>
      </trkpt>
      <trkpt lat="42.89819" lon="3.02795">
        <ele>-2</ele>
        <time>2022-09-30T07:53:46Z</time>
      </trkpt>
      <trkpt lat="42.8981" lon="3.028">
        <ele>-2</ele>
        <time>2022-09-30T07:53:57Z</time>
      </trkpt>
      <trkpt lat="42.89786" lon="3.0282">
        <ele>-3</ele>
        <time>2022-09-30T07:54:27Z</time>
      </trkpt>
      <trkpt lat="42.89784" lon="3.02822">
        <ele>-3</ele>
        <time>2022-09-30T07:54:29Z</time>
      </trkpt>
      <trkpt lat="42.89782" lon="3.02822">
        <ele>-3</ele>
        <time>2022-09-30T07:54:32Z</time>
      </trkpt>
      <trkpt lat="42.8978" lon="3.02823">
        <ele>-3</ele>
        <time>2022-09-30T07:54:34Z</time>
      </trkpt>
      <trkpt lat="42.89779" lon="3.02824">
        <ele>-3</ele>
        <time>2022-09-30T07:54:36Z</time>
      </trkpt>
      <trkpt lat="42.89777" lon="3.02825">
        <ele>-3</ele>
        <time>2022-09-30T07:54:39Z</time>
      </trkpt>
      <trkpt lat="42.89775" lon="3.02826">
        <ele>-3</ele>
        <time>2022-09-30T07:54:41Z</time>
      </trkpt>
      <trkpt lat="42.89771" lon="3.02829">
        <ele>-3</ele>
        <time>2022-09-30T07:54:45Z</time>
      </trkpt>
      <trkpt lat="42.89763" lon="3.02831">
        <ele>-3</ele>
        <time>2022-09-30T07:54:54Z</time>
      </trkpt>
      <trkpt lat="42.89761" lon="3.02833">
        <ele>-3</ele>
        <time>2022-09-30T07:54:56Z</time>
      </trkpt>
      <trkpt lat="42.8976" lon="3.02834">
        <ele>-3</ele>
        <time>2022-09-30T07:54:58Z</time>
      </trkpt>
      <trkpt lat="42.89739" lon="3.02848">
        <ele>-3</ele>
        <time>2022-09-30T07:55:21Z</time>
      </trkpt>
      <trkpt lat="42.89731" lon="3.02848">
        <ele>-3</ele>
        <time>2022-09-30T07:55:28Z</time>
      </trkpt>
      <trkpt lat="42.89729" lon="3.0285">
        <ele>-3</ele>
        <time>2022-09-30T07:55:30Z</time>
      </trkpt>
      <trkpt lat="42.89713" lon="3.02859">
        <ele>-3</ele>
        <time>2022-09-30T07:55:44Z</time>
      </trkpt>
      <trkpt lat="42.89712" lon="3.02861">
        <ele>-3</ele>
        <time>2022-09-30T07:55:47Z</time>
      </trkpt>
      <trkpt lat="42.89707" lon="3.02866">
        <ele>-3</ele>
        <time>2022-09-30T07:55:52Z</time>
      </trkpt>
      <trkpt lat="42.89703" lon="3.0287">
        <ele>-3</ele>
        <time>2022-09-30T07:55:55Z</time>
      </trkpt>
      <trkpt lat="42.89698" lon="3.02879">
        <ele>-3</ele>
        <time>2022-09-30T07:56:00Z</time>
      </trkpt>
      <trkpt lat="42.89695" lon="3.02885">
        <ele>-3</ele>
        <time>2022-09-30T07:56:03Z</time>
      </trkpt>
      <trkpt lat="42.89693" lon="3.02893">
        <ele>-3</ele>
        <time>2022-09-30T07:56:08Z</time>
      </trkpt>
      <trkpt lat="42.89689" lon="3.02899">
        <ele>-3</ele>
        <time>2022-09-30T07:56:13Z</time>
      </trkpt>
      <trkpt lat="42.89686" lon="3.02908">
        <ele>-3</ele>
        <time>2022-09-30T07:56:18Z</time>
      </trkpt>
      <trkpt lat="42.89686" lon="3.02912">
        <ele>-3</ele>
        <time>2022-09-30T07:56:24Z</time>
      </trkpt>
      <trkpt lat="42.89679" lon="3.02916">
        <ele>-3</ele>
        <time>2022-09-30T07:56:47Z</time>
      </trkpt>
      <trkpt lat="42.89678" lon="3.02916">
        <ele>-3</ele>
        <time>2022-09-30T07:56:49Z</time>
      </trkpt>
      <trkpt lat="42.89674" lon="3.02917">
        <ele>-3</ele>
        <time>2022-09-30T07:56:54Z</time>
      </trkpt>
      <trkpt lat="42.89669" lon="3.02916">
        <ele>-3</ele>
        <time>2022-09-30T07:57:00Z</time>
      </trkpt>
      <trkpt lat="42.89667" lon="3.02916">
        <ele>-3</ele>
        <time>2022-09-30T07:57:02Z</time>
      </trkpt>
      <trkpt lat="42.89666" lon="3.02916">
        <ele>-3</ele>
        <time>2022-09-30T07:57:28Z</time>
      </trkpt>
      <trkpt lat="42.89664" lon="3.02916">
        <ele>-3</ele>
        <time>2022-09-30T07:57:31Z</time>
      </trkpt>
      <trkpt lat="42.89649" lon="3.02912">
        <ele>-2</ele>
        <time>2022-09-30T07:57:49Z</time>
      </trkpt>
      <trkpt lat="42.89648" lon="3.02913">
        <ele>-2</ele>
        <time>2022-09-30T07:57:51Z</time>
      </trkpt>
      <trkpt lat="42.89644" lon="3.02913">
        <ele>-2</ele>
        <time>2022-09-30T07:57:54Z</time>
      </trkpt>
      <trkpt lat="42.89633" lon="3.02919">
        <ele>-2</ele>
        <time>2022-09-30T07:58:07Z</time>
      </trkpt>
      <trkpt lat="42.89631" lon="3.0292">
        <ele>-2</ele>
        <time>2022-09-30T07:58:09Z</time>
      </trkpt>
      <trkpt lat="42.89629" lon="3.02921">
        <ele>-2</ele>
        <time>2022-09-30T07:58:11Z</time>
      </trkpt>
      <trkpt lat="42.89628" lon="3.02922">
        <ele>-2</ele>
        <time>2022-09-30T07:58:13Z</time>
      </trkpt>
      <trkpt lat="42.89622" lon="3.02921">
        <ele>-2</ele>
        <time>2022-09-30T07:58:17Z</time>
      </trkpt>
      <trkpt lat="42.89616" lon="3.0292">
        <ele>-2</ele>
        <time>2022-09-30T07:58:25Z</time>
      </trkpt>
      <trkpt lat="42.89613" lon="3.02919">
        <ele>-2</ele>
        <time>2022-09-30T07:58:27Z</time>
      </trkpt>
      <trkpt lat="42.89611" lon="3.0292">
        <ele>-2</ele>
        <time>2022-09-30T07:58:29Z</time>
      </trkpt>
      <trkpt lat="42.89609" lon="3.02921">
        <ele>-2</ele>
        <time>2022-09-30T07:58:32Z</time>
      </trkpt>
      <trkpt lat="42.89607" lon="3.0292">
        <ele>-2</ele>
        <time>2022-09-30T07:58:34Z</time>
      </trkpt>
      <trkpt lat="42.89605" lon="3.0292">
        <ele>-2</ele>
        <time>2022-09-30T07:58:36Z</time>
      </trkpt>
      <trkpt lat="42.89598" lon="3.02917">
        <ele>-2</ele>
        <time>2022-09-30T07:58:43Z</time>
      </trkpt>
      <trkpt lat="42.89596" lon="3.02917">
        <ele>-2</ele>
        <time>2022-09-30T07:58:45Z</time>
      </trkpt>
      <trkpt lat="42.89592" lon="3.02916">
        <ele>-2</ele>
        <time>2022-09-30T07:58:48Z</time>
      </trkpt>
      <trkpt lat="42.8959" lon="3.02917">
        <ele>-2</ele>
        <time>2022-09-30T07:58:50Z</time>
      </trkpt>
      <trkpt lat="42.89587" lon="3.02919">
        <ele>-2</ele>
        <time>2022-09-30T07:58:54Z</time>
      </trkpt>
      <trkpt lat="42.89586" lon="3.02919">
        <ele>-2</ele>
        <time>2022-09-30T07:58:57Z</time>
      </trkpt>
      <trkpt lat="42.89584" lon="3.02919">
        <ele>-2</ele>
        <time>2022-09-30T07:58:58Z</time>
      </trkpt>
      <trkpt lat="42.89583" lon="3.02919">
        <ele>-2</ele>
        <time>2022-09-30T07:59:00Z</time>
      </trkpt>
      <trkpt lat="42.89581" lon="3.02919">
        <ele>-2</ele>
        <time>2022-09-30T07:59:02Z</time>
      </trkpt>
      <trkpt lat="42.89579" lon="3.02919">
        <ele>-2</ele>
        <time>2022-09-30T07:59:05Z</time>
      </trkpt>
      <trkpt lat="42.89578" lon="3.02918">
        <ele>-2</ele>
        <time>2022-09-30T07:59:10Z</time>
      </trkpt>
      <trkpt lat="42.89577" lon="3.02918">
        <ele>-2</ele>
        <time>2022-09-30T07:59:12Z</time>
      </trkpt>
      <trkpt lat="42.89574" lon="3.02916">
        <ele>-2</ele>
        <time>2022-09-30T07:59:50Z</time>
      </trkpt>
      <trkpt lat="42.89572" lon="3.02916">
        <ele>-2</ele>
        <time>2022-09-30T07:59:52Z</time>
      </trkpt>
      <trkpt lat="42.89571" lon="3.02916">
        <ele>-2</ele>
        <time>2022-09-30T07:59:55Z</time>
      </trkpt>
      <trkpt lat="42.8957" lon="3.02916">
        <ele>-2</ele>
        <time>2022-09-30T08:00:01Z</time>
      </trkpt>
      <trkpt lat="42.89568" lon="3.02916">
        <ele>-2</ele>
        <time>2022-09-30T08:00:04Z</time>
      </trkpt>
      <trkpt lat="42.89566" lon="3.0292">
        <ele>-2</ele>
        <time>2022-09-30T08:00:08Z</time>
      </trkpt>
      <trkpt lat="42.89563" lon="3.02921">
        <ele>-2</ele>
        <time>2022-09-30T08:00:12Z</time>
      </trkpt>
      <trkpt lat="42.89562" lon="3.02922">
        <ele>-2</ele>
        <time>2022-09-30T08:00:14Z</time>
      </trkpt>
      <trkpt lat="42.8956" lon="3.02922">
        <ele>-2</ele>
        <time>2022-09-30T08:00:16Z</time>
      </trkpt>
      <trkpt lat="42.89559" lon="3.02921">
        <ele>-2</ele>
        <time>2022-09-30T08:00:17Z</time>
      </trkpt>
      <trkpt lat="42.89557" lon="3.02921">
        <ele>-2</ele>
        <time>2022-09-30T08:00:18Z</time>
      </trkpt>
      <trkpt lat="42.89556" lon="3.0292">
        <ele>-2</ele>
        <time>2022-09-30T08:00:20Z</time>
      </trkpt>
      <trkpt lat="42.89552" lon="3.02919">
        <ele>-2</ele>
        <time>2022-09-30T08:00:24Z</time>
      </trkpt>
      <trkpt lat="42.8955" lon="3.02919">
        <ele>-2</ele>
        <time>2022-09-30T08:00:27Z</time>
      </trkpt>
      <trkpt lat="42.89543" lon="3.02918">
        <ele>-2</ele>
        <time>2022-09-30T08:00:34Z</time>
      </trkpt>
      <trkpt lat="42.89542" lon="3.02918">
        <ele>-2</ele>
        <time>2022-09-30T08:00:36Z</time>
      </trkpt>
      <trkpt lat="42.89541" lon="3.02917">
        <ele>-2</ele>
        <time>2022-09-30T08:00:38Z</time>
      </trkpt>
      <trkpt lat="42.89539" lon="3.02917">
        <ele>-2</ele>
        <time>2022-09-30T08:00:39Z</time>
      </trkpt>
      <trkpt lat="42.89538" lon="3.02917">
        <ele>-2</ele>
        <time>2022-09-30T08:00:41Z</time>
      </trkpt>
      <trkpt lat="42.89536" lon="3.02917">
        <ele>-2</ele>
        <time>2022-09-30T08:00:43Z</time>
      </trkpt>
      <trkpt lat="42.89533" lon="3.02918">
        <ele>-2</ele>
        <time>2022-09-30T08:00:47Z</time>
      </trkpt>
      <trkpt lat="42.89532" lon="3.02918">
        <ele>-2</ele>
        <time>2022-09-30T08:00:49Z</time>
      </trkpt>
      <trkpt lat="42.8953" lon="3.02919">
        <ele>-2</ele>
        <time>2022-09-30T08:00:52Z</time>
      </trkpt>
      <trkpt lat="42.89528" lon="3.02919">
        <ele>-2</ele>
        <time>2022-09-30T08:00:54Z</time>
      </trkpt>
      <trkpt lat="42.89526" lon="3.02918">
        <ele>-2</ele>
        <time>2022-09-30T08:00:56Z</time>
      </trkpt>
      <trkpt lat="42.89525" lon="3.02918">
        <ele>-2</ele>
        <time>2022-09-30T08:00:58Z</time>
      </trkpt>
      <trkpt lat="42.89519" lon="3.02919">
        <ele>-2</ele>
        <time>2022-09-30T08:01:04Z</time>
      </trkpt>
      <trkpt lat="42.89518" lon="3.02919">
        <ele>-2</ele>
        <time>2022-09-30T08:01:06Z</time>
      </trkpt>
      <trkpt lat="42.89518" lon="3.02917">
        <ele>-2</ele>
        <time>2022-09-30T08:01:10Z</time>
      </trkpt>
      <trkpt lat="42.89517" lon="3.02914">
        <ele>-2</ele>
        <time>2022-09-30T08:01:12Z</time>
      </trkpt>
      <trkpt lat="42.89516" lon="3.02909">
        <ele>-2</ele>
        <time>2022-09-30T08:01:17Z</time>
      </trkpt>
      <trkpt lat="42.89515" lon="3.02908">
        <ele>-2</ele>
        <time>2022-09-30T08:01:19Z</time>
      </trkpt>
      <trkpt lat="42.89514" lon="3.02905">
        <ele>-1</ele>
        <time>2022-09-30T08:01:21Z</time>
      </trkpt>
      <trkpt lat="42.89513" lon="3.02904">
        <ele>-1</ele>
        <time>2022-09-30T08:01:23Z</time>
      </trkpt>
      <trkpt lat="42.89513" lon="3.02902">
        <ele>-1</ele>
        <time>2022-09-30T08:01:27Z</time>
      </trkpt>
      <trkpt lat="42.89512" lon="3.02901">
        <ele>-1</ele>
        <time>2022-09-30T08:01:29Z</time>
      </trkpt>
      <trkpt lat="42.8951" lon="3.029">
        <ele>-1</ele>
        <time>2022-09-30T08:01:32Z</time>
      </trkpt>
      <trkpt lat="42.8951" lon="3.02899">
        <ele>-1</ele>
        <time>2022-09-30T08:01:36Z</time>
      </trkpt>
      <trkpt lat="42.89509" lon="3.02895">
        <ele>-1</ele>
        <time>2022-09-30T08:02:10Z</time>
      </trkpt>
      <trkpt lat="42.89508" lon="3.02894">
        <ele>-1</ele>
        <time>2022-09-30T08:02:11Z</time>
      </trkpt>
      <trkpt lat="42.89506" lon="3.02893">
        <ele>-1</ele>
        <time>2022-09-30T08:02:12Z</time>
      </trkpt>
      <trkpt lat="42.89505" lon="3.02893">
        <ele>-1</ele>
        <time>2022-09-30T08:02:17Z</time>
      </trkpt>
      <trkpt lat="42.89509" lon="3.02896">
        <ele>2.4</ele>
        <time>2022-09-30T08:02:30Z</time>
      </trkpt>
      <trkpt lat="42.8951" lon="3.02898">
        <ele>2.3</ele>
        <time>2022-09-30T08:02:33Z</time>
      </trkpt>
      <trkpt lat="42.89511" lon="3.02899">
        <ele>2.3</ele>
        <time>2022-09-30T08:02:36Z</time>
      </trkpt>
      <trkpt lat="42.89513" lon="3.029">
        <ele>2.3</ele>
        <time>2022-09-30T08:02:39Z</time>
      </trkpt>
      <trkpt lat="42.89513" lon="3.02902">
        <ele>2.3</ele>
        <time>2022-09-30T08:02:41Z</time>
      </trkpt>
      <trkpt lat="42.89514" lon="3.02903">
        <ele>2.3</ele>
        <time>2022-09-30T08:02:48Z</time>
      </trkpt>
      <trkpt lat="42.89517" lon="3.02904">
        <ele>2.3</ele>
        <time>2022-09-30T08:02:54Z</time>
      </trkpt>
      <trkpt lat="42.89517" lon="3.02907">
        <ele>2.3</ele>
        <time>2022-09-30T08:02:57Z</time>
      </trkpt>
      <trkpt lat="42.89516" lon="3.02908">
        <ele>2.2</ele>
        <time>2022-09-30T08:03:02Z</time>
      </trkpt>
      <trkpt lat="42.89519" lon="3.0291">
        <ele>2.3</ele>
        <time>2022-09-30T08:03:20Z</time>
      </trkpt>
      <trkpt lat="42.89521" lon="3.02911">
        <ele>1</ele>
        <time>2022-09-30T08:04:37Z</time>
      </trkpt>
      <trkpt lat="42.89523" lon="3.02912">
        <ele>1</ele>
        <time>2022-09-30T08:04:41Z</time>
      </trkpt>
      <trkpt lat="42.89525" lon="3.02913">
        <ele>1</ele>
        <time>2022-09-30T08:04:43Z</time>
      </trkpt>
      <trkpt lat="42.89526" lon="3.02914">
        <ele>1</ele>
        <time>2022-09-30T08:04:46Z</time>
      </trkpt>
      <trkpt lat="42.89528" lon="3.02915">
        <ele>1</ele>
        <time>2022-09-30T08:04:49Z</time>
      </trkpt>
      <trkpt lat="42.89529" lon="3.02915">
        <ele>1</ele>
        <time>2022-09-30T08:04:58Z</time>
      </trkpt>
      <trkpt lat="42.89531" lon="3.02915">
        <ele>2</ele>
        <time>2022-09-30T08:05:01Z</time>
      </trkpt>
      <trkpt lat="42.89532" lon="3.02915">
        <ele>2</ele>
        <time>2022-09-30T08:05:06Z</time>
      </trkpt>
      <trkpt lat="42.89535" lon="3.02914">
        <ele>2</ele>
        <time>2022-09-30T08:05:10Z</time>
      </trkpt>
      <trkpt lat="42.89537" lon="3.02914">
        <ele>2</ele>
        <time>2022-09-30T08:05:12Z</time>
      </trkpt>
      <trkpt lat="42.8954" lon="3.02916">
        <ele>2</ele>
        <time>2022-09-30T08:05:16Z</time>
      </trkpt>
      <trkpt lat="42.89542" lon="3.02917">
        <ele>2</ele>
        <time>2022-09-30T08:05:18Z</time>
      </trkpt>
      <trkpt lat="42.89544" lon="3.02918">
        <ele>2</ele>
        <time>2022-09-30T08:05:21Z</time>
      </trkpt>
      <trkpt lat="42.89555" lon="3.02921">
        <ele>1</ele>
        <time>2022-09-30T08:05:33Z</time>
      </trkpt>
      <trkpt lat="42.89563" lon="3.02927">
        <ele>1</ele>
        <time>2022-09-30T08:05:43Z</time>
      </trkpt>
      <trkpt lat="42.89567" lon="3.02928">
        <ele>1</ele>
        <time>2022-09-30T08:05:47Z</time>
      </trkpt>
      <trkpt lat="42.89569" lon="3.02931">
        <ele>1</ele>
        <time>2022-09-30T08:05:51Z</time>
      </trkpt>
      <trkpt lat="42.89571" lon="3.02932">
        <ele>1</ele>
        <time>2022-09-30T08:05:53Z</time>
      </trkpt>
      <trkpt lat="42.89575" lon="3.02937">
        <ele>1</ele>
        <time>2022-09-30T08:05:59Z</time>
      </trkpt>
      <trkpt lat="42.89579" lon="3.02938">
        <ele>1</ele>
        <time>2022-09-30T08:06:03Z</time>
      </trkpt>
      <trkpt lat="42.89582" lon="3.02939">
        <ele>1</ele>
        <time>2022-09-30T08:06:07Z</time>
      </trkpt>
      <trkpt lat="42.89587" lon="3.02941">
        <ele>1</ele>
        <time>2022-09-30T08:06:11Z</time>
      </trkpt>
      <trkpt lat="42.89599" lon="3.02951">
        <ele>1</ele>
        <time>2022-09-30T08:06:26Z</time>
      </trkpt>
      <trkpt lat="42.896" lon="3.02951">
        <ele>1</ele>
        <time>2022-09-30T08:06:28Z</time>
      </trkpt>
      <trkpt lat="42.89602" lon="3.02952">
        <ele>1</ele>
        <time>2022-09-30T08:06:31Z</time>
      </trkpt>
      <trkpt lat="42.89603" lon="3.02956">
        <ele>1</ele>
        <time>2022-09-30T08:06:37Z</time>
      </trkpt>
      <trkpt lat="42.89602" lon="3.02957">
        <ele>-1</ele>
        <time>2022-09-30T08:06:41Z</time>
      </trkpt>
      <trkpt lat="42.89606" lon="3.0296">
        <ele>-1</ele>
        <time>2022-09-30T08:06:50Z</time>
      </trkpt>
      <trkpt lat="42.89607" lon="3.02962">
        <ele>-1</ele>
        <time>2022-09-30T08:06:53Z</time>
      </trkpt>
      <trkpt lat="42.89609" lon="3.02965">
        <ele>-1</ele>
        <time>2022-09-30T08:06:58Z</time>
      </trkpt>
      <trkpt lat="42.89609" lon="3.02965">
        <ele>-1</ele>
        <time>2022-09-30T08:07:31Z</time>
      </trkpt>
      <trkpt lat="42.89611" lon="3.02967">
        <ele>-1</ele>
        <time>2022-09-30T08:08:02Z</time>
      </trkpt>
      <trkpt lat="42.89613" lon="3.02967">
        <ele>-1</ele>
        <time>2022-09-30T08:08:07Z</time>
      </trkpt>
      <trkpt lat="42.89617" lon="3.02977">
        <ele>-1</ele>
        <time>2022-09-30T08:08:24Z</time>
      </trkpt>
      <trkpt lat="42.89622" lon="3.02988">
        <ele>-1</ele>
        <time>2022-09-30T08:08:35Z</time>
      </trkpt>
      <trkpt lat="42.89625" lon="3.02994">
        <ele>-1</ele>
        <time>2022-09-30T08:08:41Z</time>
      </trkpt>
      <trkpt lat="42.89628" lon="3.02998">
        <ele>-1</ele>
        <time>2022-09-30T08:08:46Z</time>
      </trkpt>
      <trkpt lat="42.89629" lon="3.03">
        <ele>-1</ele>
        <time>2022-09-30T08:08:49Z</time>
      </trkpt>
      <trkpt lat="42.89629" lon="3.03003">
        <ele>-1</ele>
        <time>2022-09-30T08:08:51Z</time>
      </trkpt>
      <trkpt lat="42.89629" lon="3.03005">
        <ele>-1</ele>
        <time>2022-09-30T08:08:54Z</time>
      </trkpt>
      <trkpt lat="42.89632" lon="3.03008">
        <ele>-1</ele>
        <time>2022-09-30T08:08:57Z</time>
      </trkpt>
      <trkpt lat="42.89636" lon="3.03013">
        <ele>-1</ele>
        <time>2022-09-30T08:09:02Z</time>
      </trkpt>
      <trkpt lat="42.89638" lon="3.03014">
        <ele>-1</ele>
        <time>2022-09-30T08:09:04Z</time>
      </trkpt>
      <trkpt lat="42.89638" lon="3.03017">
        <ele>-1</ele>
        <time>2022-09-30T08:09:06Z</time>
      </trkpt>
      <trkpt lat="42.89639" lon="3.03019">
        <ele>-2</ele>
        <time>2022-09-30T08:09:11Z</time>
      </trkpt>
      <trkpt lat="42.8964" lon="3.03026">
        <ele>-2</ele>
        <time>2022-09-30T08:09:18Z</time>
      </trkpt>
      <trkpt lat="42.8964" lon="3.03028">
        <ele>-2</ele>
        <time>2022-09-30T08:09:20Z</time>
      </trkpt>
      <trkpt lat="42.8964" lon="3.0306">
        <ele>-2</ele>
        <time>2022-09-30T08:09:46Z</time>
      </trkpt>
      <trkpt lat="42.8964" lon="3.03062">
        <ele>-2</ele>
        <time>2022-09-30T08:09:48Z</time>
      </trkpt>
      <trkpt lat="42.89641" lon="3.03067">
        <ele>-2</ele>
        <time>2022-09-30T08:09:53Z</time>
      </trkpt>
      <trkpt lat="42.89642" lon="3.03075">
        <ele>-2</ele>
        <time>2022-09-30T08:10:01Z</time>
      </trkpt>
      <trkpt lat="42.89642" lon="3.03081">
        <ele>-2</ele>
        <time>2022-09-30T08:10:06Z</time>
      </trkpt>
      <trkpt lat="42.89642" lon="3.03088">
        <ele>-2</ele>
        <time>2022-09-30T08:10:12Z</time>
      </trkpt>
      <trkpt lat="42.89642" lon="3.03092">
        <ele>-2</ele>
        <time>2022-09-30T08:10:17Z</time>
      </trkpt>
      <trkpt lat="42.89642" lon="3.03094">
        <ele>-2</ele>
        <time>2022-09-30T08:10:19Z</time>
      </trkpt>
      <trkpt lat="42.89643" lon="3.03096">
        <ele>-2</ele>
        <time>2022-09-30T08:10:21Z</time>
      </trkpt>
      <trkpt lat="42.89644" lon="3.03102">
        <ele>-2</ele>
        <time>2022-09-30T08:10:25Z</time>
      </trkpt>
      <trkpt lat="42.89644" lon="3.03104">
        <ele>-2</ele>
        <time>2022-09-30T08:10:27Z</time>
      </trkpt>
      <trkpt lat="42.89644" lon="3.03125">
        <ele>-2</ele>
        <time>2022-09-30T08:10:46Z</time>
      </trkpt>
      <trkpt lat="42.89644" lon="3.0313">
        <ele>-2</ele>
        <time>2022-09-30T08:10:51Z</time>
      </trkpt>
      <trkpt lat="42.89643" lon="3.03134">
        <ele>-2</ele>
        <time>2022-09-30T08:10:54Z</time>
      </trkpt>
      <trkpt lat="42.89641" lon="3.03139">
        <ele>-2</ele>
        <time>2022-09-30T08:10:58Z</time>
      </trkpt>
      <trkpt lat="42.89636" lon="3.03148">
        <ele>-2</ele>
        <time>2022-09-30T08:11:06Z</time>
      </trkpt>
      <trkpt lat="42.89635" lon="3.0315">
        <ele>-2</ele>
        <time>2022-09-30T08:11:07Z</time>
      </trkpt>
      <trkpt lat="42.89634" lon="3.03153">
        <ele>-2</ele>
        <time>2022-09-30T08:11:10Z</time>
      </trkpt>
      <trkpt lat="42.89633" lon="3.03155">
        <ele>-2</ele>
        <time>2022-09-30T08:11:12Z</time>
      </trkpt>
      <trkpt lat="42.8963" lon="3.03159">
        <ele>-2</ele>
        <time>2022-09-30T08:11:16Z</time>
      </trkpt>
      <trkpt lat="42.89626" lon="3.03166">
        <ele>-2</ele>
        <time>2022-09-30T08:11:24Z</time>
      </trkpt>
      <trkpt lat="42.89619" lon="3.03178">
        <ele>-2</ele>
        <time>2022-09-30T08:11:35Z</time>
      </trkpt>
      <trkpt lat="42.89617" lon="3.03183">
        <ele>-2</ele>
        <time>2022-09-30T08:11:40Z</time>
      </trkpt>
      <trkpt lat="42.89617" lon="3.03194">
        <ele>-2</ele>
        <time>2022-09-30T08:11:49Z</time>
      </trkpt>
      <trkpt lat="42.89618" lon="3.03196">
        <ele>-2</ele>
        <time>2022-09-30T08:11:52Z</time>
      </trkpt>
      <trkpt lat="42.89622" lon="3.03216">
        <ele>-1</ele>
        <time>2022-09-30T08:12:08Z</time>
      </trkpt>
      <trkpt lat="42.89622" lon="3.03218">
        <ele>-1</ele>
        <time>2022-09-30T08:12:10Z</time>
      </trkpt>
      <trkpt lat="42.89624" lon="3.03231">
        <ele>-1</ele>
        <time>2022-09-30T08:12:23Z</time>
      </trkpt>
      <trkpt lat="42.89624" lon="3.03233">
        <ele>-1</ele>
        <time>2022-09-30T08:12:25Z</time>
      </trkpt>
      <trkpt lat="42.89626" lon="3.03242">
        <ele>-1</ele>
        <time>2022-09-30T08:12:34Z</time>
      </trkpt>
      <trkpt lat="42.89627" lon="3.03253">
        <ele>-1</ele>
        <time>2022-09-30T08:12:44Z</time>
      </trkpt>
      <trkpt lat="42.89629" lon="3.03259">
        <ele>-1</ele>
        <time>2022-09-30T08:12:49Z</time>
      </trkpt>
      <trkpt lat="42.8963" lon="3.03267">
        <ele>-1</ele>
        <time>2022-09-30T08:12:55Z</time>
      </trkpt>
      <trkpt lat="42.89636" lon="3.03284">
        <ele>-1</ele>
        <time>2022-09-30T08:13:12Z</time>
      </trkpt>
      <trkpt lat="42.89638" lon="3.03286">
        <ele>-1</ele>
        <time>2022-09-30T08:13:14Z</time>
      </trkpt>
      <trkpt lat="42.89641" lon="3.03293">
        <ele>-1</ele>
        <time>2022-09-30T08:13:21Z</time>
      </trkpt>
      <trkpt lat="42.89642" lon="3.03296">
        <ele>-1</ele>
        <time>2022-09-30T08:13:24Z</time>
      </trkpt>
      <trkpt lat="42.89643" lon="3.03299">
        <ele>-1</ele>
        <time>2022-09-30T08:13:26Z</time>
      </trkpt>
      <trkpt lat="42.89644" lon="3.03302">
        <ele>-1</ele>
        <time>2022-09-30T08:13:28Z</time>
      </trkpt>
      <trkpt lat="42.89645" lon="3.03304">
        <ele>-1</ele>
        <time>2022-09-30T08:13:30Z</time>
      </trkpt>
      <trkpt lat="42.89646" lon="3.03309">
        <ele>-1</ele>
        <time>2022-09-30T08:13:35Z</time>
      </trkpt>
      <trkpt lat="42.89646" lon="3.03312">
        <ele>-1</ele>
        <time>2022-09-30T08:13:38Z</time>
      </trkpt>
      <trkpt lat="42.89646" lon="3.03315">
        <ele>-1</ele>
        <time>2022-09-30T08:13:40Z</time>
      </trkpt>
      <trkpt lat="42.8965" lon="3.03327">
        <ele>-1</ele>
        <time>2022-09-30T08:13:52Z</time>
      </trkpt>
      <trkpt lat="42.8965" lon="3.0333">
        <ele>-1</ele>
        <time>2022-09-30T08:13:54Z</time>
      </trkpt>
      <trkpt lat="42.89651" lon="3.03332">
        <ele>-1</ele>
        <time>2022-09-30T08:13:56Z</time>
      </trkpt>
      <trkpt lat="42.89653" lon="3.03333">
        <ele>-1</ele>
        <time>2022-09-30T08:13:59Z</time>
      </trkpt>
      <trkpt lat="42.89654" lon="3.03334">
        <ele>-1</ele>
        <time>2022-09-30T08:14:02Z</time>
      </trkpt>
      <trkpt lat="42.89656" lon="3.03336">
        <ele>-1</ele>
        <time>2022-09-30T08:14:04Z</time>
      </trkpt>
      <trkpt lat="42.89658" lon="3.03339">
        <ele>-1</ele>
        <time>2022-09-30T08:14:06Z</time>
      </trkpt>
      <trkpt lat="42.8966" lon="3.03341">
        <ele>-1</ele>
        <time>2022-09-30T08:14:08Z</time>
      </trkpt>
      <trkpt lat="42.89662" lon="3.03342">
        <ele>-1</ele>
        <time>2022-09-30T08:14:11Z</time>
      </trkpt>
      <trkpt lat="42.89665" lon="3.03343">
        <ele>-1</ele>
        <time>2022-09-30T08:14:16Z</time>
      </trkpt>
      <trkpt lat="42.89667" lon="3.03347">
        <ele>-1</ele>
        <time>2022-09-30T08:14:23Z</time>
      </trkpt>
      <trkpt lat="42.89669" lon="3.03349">
        <ele>-1</ele>
        <time>2022-09-30T08:14:26Z</time>
      </trkpt>
      <trkpt lat="42.8967" lon="3.03351">
        <ele>-1</ele>
        <time>2022-09-30T08:14:29Z</time>
      </trkpt>
      <trkpt lat="42.89671" lon="3.03352">
        <ele>-1</ele>
        <time>2022-09-30T08:14:33Z</time>
      </trkpt>
      <trkpt lat="42.89672" lon="3.03354">
        <ele>-1</ele>
        <time>2022-09-30T08:14:41Z</time>
      </trkpt>
      <trkpt lat="42.89687" lon="3.03366">
        <ele>-1</ele>
        <time>2022-09-30T08:15:12Z</time>
      </trkpt>
      <trkpt lat="42.89694" lon="3.03377">
        <ele>-1</ele>
        <time>2022-09-30T08:15:25Z</time>
      </trkpt>
      <trkpt lat="42.89695" lon="3.03379">
        <ele>-1</ele>
        <time>2022-09-30T08:15:27Z</time>
      </trkpt>
      <trkpt lat="42.89696" lon="3.03381">
        <ele>-1</ele>
        <time>2022-09-30T08:15:30Z</time>
      </trkpt>
      <trkpt lat="42.89697" lon="3.03383">
        <ele>-2</ele>
        <time>2022-09-30T08:15:32Z</time>
      </trkpt>
      <trkpt lat="42.89711" lon="3.03407">
        <ele>-2</ele>
        <time>2022-09-30T08:15:57Z</time>
      </trkpt>
      <trkpt lat="42.89712" lon="3.03409">
        <ele>-2</ele>
        <time>2022-09-30T08:15:59Z</time>
      </trkpt>
      <trkpt lat="42.89713" lon="3.0341">
        <ele>-2</ele>
        <time>2022-09-30T08:16:01Z</time>
      </trkpt>
      <trkpt lat="42.89723" lon="3.0342">
        <ele>-1</ele>
        <time>2022-09-30T08:16:14Z</time>
      </trkpt>
      <trkpt lat="42.89726" lon="3.03424">
        <ele>-1</ele>
        <time>2022-09-30T08:16:20Z</time>
      </trkpt>
      <trkpt lat="42.89727" lon="3.03425">
        <ele>-1</ele>
        <time>2022-09-30T08:16:22Z</time>
      </trkpt>
      <trkpt lat="42.89729" lon="3.03427">
        <ele>-1</ele>
        <time>2022-09-30T08:16:24Z</time>
      </trkpt>
      <trkpt lat="42.8973" lon="3.03427">
        <ele>-1</ele>
        <time>2022-09-30T08:16:26Z</time>
      </trkpt>
      <trkpt lat="42.89733" lon="3.0343">
        <ele>-1</ele>
        <time>2022-09-30T08:16:30Z</time>
      </trkpt>
      <trkpt lat="42.89736" lon="3.03433">
        <ele>-1</ele>
        <time>2022-09-30T08:16:34Z</time>
      </trkpt>
      <trkpt lat="42.89737" lon="3.03434">
        <ele>-1</ele>
        <time>2022-09-30T08:16:36Z</time>
      </trkpt>
      <trkpt lat="42.89744" lon="3.0344">
        <ele>-1</ele>
        <time>2022-09-30T08:16:47Z</time>
      </trkpt>
      <trkpt lat="42.89751" lon="3.03446">
        <ele>7.1</ele>
        <time>2022-09-30T08:16:58Z</time>
      </trkpt>
      <trkpt lat="42.8976" lon="3.03456">
        <ele>7.7</ele>
        <time>2022-09-30T08:17:12Z</time>
      </trkpt>
      <trkpt lat="42.89762" lon="3.03456">
        <ele>7.8</ele>
        <time>2022-09-30T08:17:14Z</time>
      </trkpt>
      <trkpt lat="42.89774" lon="3.03466">
        <ele>1</ele>
        <time>2022-09-30T08:17:31Z</time>
      </trkpt>
      <trkpt lat="42.89776" lon="3.0347">
        <ele>1</ele>
        <time>2022-09-30T08:17:35Z</time>
      </trkpt>
      <trkpt lat="42.89781" lon="3.03473">
        <ele>1</ele>
        <time>2022-09-30T08:17:43Z</time>
      </trkpt>
      <trkpt lat="42.89784" lon="3.03476">
        <ele>1</ele>
        <time>2022-09-30T08:17:48Z</time>
      </trkpt>
      <trkpt lat="42.89788" lon="3.03479">
        <ele>1</ele>
        <time>2022-09-30T08:17:53Z</time>
      </trkpt>
      <trkpt lat="42.89791" lon="3.03488">
        <ele>1</ele>
        <time>2022-09-30T08:18:02Z</time>
      </trkpt>
      <trkpt lat="42.89792" lon="3.0349">
        <ele>1</ele>
        <time>2022-09-30T08:18:05Z</time>
      </trkpt>
      <trkpt lat="42.89793" lon="3.03492">
        <ele>1</ele>
        <time>2022-09-30T08:18:07Z</time>
      </trkpt>
      <trkpt lat="42.89793" lon="3.03494">
        <ele>1</ele>
        <time>2022-09-30T08:18:13Z</time>
      </trkpt>
      <trkpt lat="42.89792" lon="3.03497">
        <ele>2</ele>
        <time>2022-09-30T08:18:22Z</time>
      </trkpt>
      <trkpt lat="42.89791" lon="3.03502">
        <ele>2</ele>
        <time>2022-09-30T08:18:30Z</time>
      </trkpt>
      <trkpt lat="42.89789" lon="3.03502">
        <ele>2</ele>
        <time>2022-09-30T08:18:36Z</time>
      </trkpt>
      <trkpt lat="42.89787" lon="3.03504">
        <ele>2</ele>
        <time>2022-09-30T08:18:43Z</time>
      </trkpt>
      <trkpt lat="42.89787" lon="3.0351">
        <ele>2</ele>
        <time>2022-09-30T08:18:48Z</time>
      </trkpt>
      <trkpt lat="42.89786" lon="3.03512">
        <ele>2</ele>
        <time>2022-09-30T08:18:50Z</time>
      </trkpt>
      <trkpt lat="42.89787" lon="3.03515">
        <ele>2</ele>
        <time>2022-09-30T08:18:53Z</time>
      </trkpt>
      <trkpt lat="42.89779" lon="3.03525">
        <ele>2</ele>
        <time>2022-09-30T08:19:08Z</time>
      </trkpt>
      <trkpt lat="42.89778" lon="3.03528">
        <ele>2</ele>
        <time>2022-09-30T08:19:12Z</time>
      </trkpt>
      <trkpt lat="42.89777" lon="3.03529">
        <ele>2</ele>
        <time>2022-09-30T08:19:16Z</time>
      </trkpt>
      <trkpt lat="42.89777" lon="3.03529">
        <ele>5</ele>
        <time>2022-09-30T08:21:43Z</time>
      </trkpt>
      <trkpt lat="42.89776" lon="3.03532">
        <ele>5</ele>
        <time>2022-09-30T08:21:47Z</time>
      </trkpt>
      <trkpt lat="42.89774" lon="3.03531">
        <ele>5</ele>
        <time>2022-09-30T08:22:04Z</time>
      </trkpt>
      <trkpt lat="42.89778" lon="3.03527">
        <ele>4</ele>
        <time>2022-09-30T08:22:36Z</time>
      </trkpt>
      <trkpt lat="42.89776" lon="3.03527">
        <ele>4</ele>
        <time>2022-09-30T08:25:04Z</time>
      </trkpt>
      <trkpt lat="42.89774" lon="3.03527">
        <ele>4</ele>
        <time>2022-09-30T08:25:15Z</time>
      </trkpt>
      <trkpt lat="42.89775" lon="3.03532">
        <ele>4</ele>
        <time>2022-09-30T08:25:40Z</time>
      </trkpt>
      <trkpt lat="42.89775" lon="3.03534">
        <ele>4</ele>
        <time>2022-09-30T08:25:43Z</time>
      </trkpt>
      <trkpt lat="42.89777" lon="3.03535">
        <ele>4</ele>
        <time>2022-09-30T08:25:46Z</time>
      </trkpt>
      <trkpt lat="42.89777" lon="3.03523">
        <ele>3</ele>
        <time>2022-09-30T08:26:57Z</time>
      </trkpt>
      <trkpt lat="42.89783" lon="3.03515">
        <ele>3</ele>
        <time>2022-09-30T08:27:07Z</time>
      </trkpt>
      <trkpt lat="42.89786" lon="3.03507">
        <ele>3</ele>
        <time>2022-09-30T08:27:15Z</time>
      </trkpt>
      <trkpt lat="42.8979" lon="3.035">
        <ele>3</ele>
        <time>2022-09-30T08:27:22Z</time>
      </trkpt>
      <trkpt lat="42.89792" lon="3.03499">
        <ele>3</ele>
        <time>2022-09-30T08:27:25Z</time>
      </trkpt>
      <trkpt lat="42.89794" lon="3.03499">
        <ele>3</ele>
        <time>2022-09-30T08:27:27Z</time>
      </trkpt>
      <trkpt lat="42.89797" lon="3.03501">
        <ele>3</ele>
        <time>2022-09-30T08:27:31Z</time>
      </trkpt>
      <trkpt lat="42.89808" lon="3.03513">
        <ele>3</ele>
        <time>2022-09-30T08:27:47Z</time>
      </trkpt>
      <trkpt lat="42.89811" lon="3.03519">
        <ele>3</ele>
        <time>2022-09-30T08:27:54Z</time>
      </trkpt>
      <trkpt lat="42.89814" lon="3.03522">
        <ele>4</ele>
        <time>2022-09-30T08:27:59Z</time>
      </trkpt>
      <trkpt lat="42.89818" lon="3.03526">
        <ele>4</ele>
        <time>2022-09-30T08:28:07Z</time>
      </trkpt>
      <trkpt lat="42.89822" lon="3.03528">
        <ele>4</ele>
        <time>2022-09-30T08:28:13Z</time>
      </trkpt>
      <trkpt lat="42.89823" lon="3.03529">
        <ele>4</ele>
        <time>2022-09-30T08:28:15Z</time>
      </trkpt>
      <trkpt lat="42.89825" lon="3.03532">
        <ele>4</ele>
        <time>2022-09-30T08:28:21Z</time>
      </trkpt>
      <trkpt lat="42.89827" lon="3.03532">
        <ele>5</ele>
        <time>2022-09-30T08:28:24Z</time>
      </trkpt>
      <trkpt lat="42.89832" lon="3.03535">
        <ele>5</ele>
        <time>2022-09-30T08:28:32Z</time>
      </trkpt>
      <trkpt lat="42.89851" lon="3.03555">
        <ele>6</ele>
        <time>2022-09-30T08:29:03Z</time>
      </trkpt>
      <trkpt lat="42.89862" lon="3.03566">
        <ele>6</ele>
        <time>2022-09-30T08:29:19Z</time>
      </trkpt>
      <trkpt lat="42.89868" lon="3.03578">
        <ele>6</ele>
        <time>2022-09-30T08:29:29Z</time>
      </trkpt>
      <trkpt lat="42.89871" lon="3.03582">
        <ele>6</ele>
        <time>2022-09-30T08:29:34Z</time>
      </trkpt>
      <trkpt lat="42.89873" lon="3.03587">
        <ele>6</ele>
        <time>2022-09-30T08:29:38Z</time>
      </trkpt>
      <trkpt lat="42.89875" lon="3.03592">
        <ele>6</ele>
        <time>2022-09-30T08:29:42Z</time>
      </trkpt>
      <trkpt lat="42.89877" lon="3.03593">
        <ele>6</ele>
        <time>2022-09-30T08:29:44Z</time>
      </trkpt>
      <trkpt lat="42.89878" lon="3.03592">
        <ele>6</ele>
        <time>2022-09-30T08:29:47Z</time>
      </trkpt>
      <trkpt lat="42.8988" lon="3.03592">
        <ele>6</ele>
        <time>2022-09-30T08:29:50Z</time>
      </trkpt>
      <trkpt lat="42.89881" lon="3.03591">
        <ele>6</ele>
        <time>2022-09-30T08:29:52Z</time>
      </trkpt>
      <trkpt lat="42.89883" lon="3.03589">
        <ele>6</ele>
        <time>2022-09-30T08:29:54Z</time>
      </trkpt>
      <trkpt lat="42.89884" lon="3.03587">
        <ele>6</ele>
        <time>2022-09-30T08:29:57Z</time>
      </trkpt>
      <trkpt lat="42.89885" lon="3.03585">
        <ele>6</ele>
        <time>2022-09-30T08:29:59Z</time>
      </trkpt>
      <trkpt lat="42.89885" lon="3.03583">
        <ele>6</ele>
        <time>2022-09-30T08:30:01Z</time>
      </trkpt>
      <trkpt lat="42.89886" lon="3.03581">
        <ele>6</ele>
        <time>2022-09-30T08:30:03Z</time>
      </trkpt>
      <trkpt lat="42.89888" lon="3.03579">
        <ele>6</ele>
        <time>2022-09-30T08:30:06Z</time>
      </trkpt>
      <trkpt lat="42.8989" lon="3.03572">
        <ele>6</ele>
        <time>2022-09-30T08:30:14Z</time>
      </trkpt>
      <trkpt lat="42.89893" lon="3.03567">
        <ele>6</ele>
        <time>2022-09-30T08:30:20Z</time>
      </trkpt>
      <trkpt lat="42.89894" lon="3.03565">
        <ele>6</ele>
        <time>2022-09-30T08:30:22Z</time>
      </trkpt>
      <trkpt lat="42.89895" lon="3.03563">
        <ele>6</ele>
        <time>2022-09-30T08:30:25Z</time>
      </trkpt>
      <trkpt lat="42.89896" lon="3.0356">
        <ele>6</ele>
        <time>2022-09-30T08:30:27Z</time>
      </trkpt>
      <trkpt lat="42.89897" lon="3.03559">
        <ele>6</ele>
        <time>2022-09-30T08:30:29Z</time>
      </trkpt>
      <trkpt lat="42.89899" lon="3.03554">
        <ele>6</ele>
        <time>2022-09-30T08:30:34Z</time>
      </trkpt>
      <trkpt lat="42.89902" lon="3.03547">
        <ele>6</ele>
        <time>2022-09-30T08:30:40Z</time>
      </trkpt>
      <trkpt lat="42.89905" lon="3.03542">
        <ele>6</ele>
        <time>2022-09-30T08:30:45Z</time>
      </trkpt>
      <trkpt lat="42.89907" lon="3.03542">
        <ele>6</ele>
        <time>2022-09-30T08:30:48Z</time>
      </trkpt>
      <trkpt lat="42.89909" lon="3.0354">
        <ele>6</ele>
        <time>2022-09-30T08:30:50Z</time>
      </trkpt>
      <trkpt lat="42.89911" lon="3.03539">
        <ele>6</ele>
        <time>2022-09-30T08:30:54Z</time>
      </trkpt>
      <trkpt lat="42.89913" lon="3.0354">
        <ele>6</ele>
        <time>2022-09-30T08:30:57Z</time>
      </trkpt>
      <trkpt lat="42.89915" lon="3.03541">
        <ele>6</ele>
        <time>2022-09-30T08:31:00Z</time>
      </trkpt>
      <trkpt lat="42.89916" lon="3.0354">
        <ele>6</ele>
        <time>2022-09-30T08:31:04Z</time>
      </trkpt>
      <trkpt lat="42.8992" lon="3.03539">
        <ele>7</ele>
        <time>2022-09-30T08:31:13Z</time>
      </trkpt>
      <trkpt lat="42.89922" lon="3.03539">
        <ele>7</ele>
        <time>2022-09-30T08:31:17Z</time>
      </trkpt>
      <trkpt lat="42.89929" lon="3.03529">
        <ele>7</ele>
        <time>2022-09-30T08:31:27Z</time>
      </trkpt>
      <trkpt lat="42.8993" lon="3.03526">
        <ele>7</ele>
        <time>2022-09-30T08:31:29Z</time>
      </trkpt>
      <trkpt lat="42.89932" lon="3.03516">
        <ele>7</ele>
        <time>2022-09-30T08:31:36Z</time>
      </trkpt>
      <trkpt lat="42.89941" lon="3.03502">
        <ele>7</ele>
        <time>2022-09-30T08:31:51Z</time>
      </trkpt>
      <trkpt lat="42.89951" lon="3.03484">
        <ele>7</ele>
        <time>2022-09-30T08:32:09Z</time>
      </trkpt>
      <trkpt lat="42.89956" lon="3.03474">
        <ele>7</ele>
        <time>2022-09-30T08:32:16Z</time>
      </trkpt>
      <trkpt lat="42.89958" lon="3.03457">
        <ele>7</ele>
        <time>2022-09-30T08:32:29Z</time>
      </trkpt>
      <trkpt lat="42.89958" lon="3.03453">
        <ele>7</ele>
        <time>2022-09-30T08:32:34Z</time>
      </trkpt>
      <trkpt lat="42.89958" lon="3.03451">
        <ele>7</ele>
        <time>2022-09-30T08:32:38Z</time>
      </trkpt>
      <trkpt lat="42.89958" lon="3.03446">
        <ele>6</ele>
        <time>2022-09-30T08:32:44Z</time>
      </trkpt>
      <trkpt lat="42.89958" lon="3.03443">
        <ele>6</ele>
        <time>2022-09-30T08:32:46Z</time>
      </trkpt>
      <trkpt lat="42.89957" lon="3.03435">
        <ele>6</ele>
        <time>2022-09-30T08:32:52Z</time>
      </trkpt>
      <trkpt lat="42.89957" lon="3.03432">
        <ele>6</ele>
        <time>2022-09-30T08:32:54Z</time>
      </trkpt>
      <trkpt lat="42.89956" lon="3.03429">
        <ele>6</ele>
        <time>2022-09-30T08:32:56Z</time>
      </trkpt>
      <trkpt lat="42.89955" lon="3.0342">
        <ele>6</ele>
        <time>2022-09-30T08:33:03Z</time>
      </trkpt>
      <trkpt lat="42.89955" lon="3.03418">
        <ele>6</ele>
        <time>2022-09-30T08:33:05Z</time>
      </trkpt>
      <trkpt lat="42.89955" lon="3.03415">
        <ele>6</ele>
        <time>2022-09-30T08:33:08Z</time>
      </trkpt>
      <trkpt lat="42.89955" lon="3.03413">
        <ele>7</ele>
        <time>2022-09-30T08:33:12Z</time>
      </trkpt>
      <trkpt lat="42.89955" lon="3.03412">
        <ele>7</ele>
        <time>2022-09-30T08:33:14Z</time>
      </trkpt>
      <trkpt lat="42.89955" lon="3.0341">
        <ele>7</ele>
        <time>2022-09-30T08:33:17Z</time>
      </trkpt>
      <trkpt lat="42.89956" lon="3.0341">
        <ele>7</ele>
        <time>2022-09-30T08:33:20Z</time>
      </trkpt>
      <trkpt lat="42.89957" lon="3.03408">
        <ele>8</ele>
        <time>2022-09-30T08:33:36Z</time>
      </trkpt>
      <trkpt lat="42.89954" lon="3.03413">
        <ele>9</ele>
        <time>2022-09-30T08:33:55Z</time>
      </trkpt>
      <trkpt lat="42.8995" lon="3.03419">
        <ele>12</ele>
        <time>2022-09-30T08:35:23Z</time>
      </trkpt>
      <trkpt lat="42.89951" lon="3.03418">
        <ele>12</ele>
        <time>2022-09-30T08:35:32Z</time>
      </trkpt>
      <trkpt lat="42.89954" lon="3.03424">
        <ele>13</ele>
        <time>2022-09-30T08:36:44Z</time>
      </trkpt>
      <trkpt lat="42.89953" lon="3.03428">
        <ele>13</ele>
        <time>2022-09-30T08:36:49Z</time>
      </trkpt>
      <trkpt lat="42.89955" lon="3.03434">
        <ele>13</ele>
        <time>2022-09-30T08:36:57Z</time>
      </trkpt>
      <trkpt lat="42.89955" lon="3.03437">
        <ele>12</ele>
        <time>2022-09-30T08:36:59Z</time>
      </trkpt>
      <trkpt lat="42.89956" lon="3.03446">
        <ele>12</ele>
        <time>2022-09-30T08:37:07Z</time>
      </trkpt>
      <trkpt lat="42.89956" lon="3.03449">
        <ele>12</ele>
        <time>2022-09-30T08:37:09Z</time>
      </trkpt>
      <trkpt lat="42.89957" lon="3.03451">
        <ele>12</ele>
        <time>2022-09-30T08:37:11Z</time>
      </trkpt>
      <trkpt lat="42.89957" lon="3.03458">
        <ele>12</ele>
        <time>2022-09-30T08:37:17Z</time>
      </trkpt>
      <trkpt lat="42.89954" lon="3.0347">
        <ele>11</ele>
        <time>2022-09-30T08:37:27Z</time>
      </trkpt>
      <trkpt lat="42.89954" lon="3.03473">
        <ele>11</ele>
        <time>2022-09-30T08:37:29Z</time>
      </trkpt>
      <trkpt lat="42.89948" lon="3.03491">
        <ele>10</ele>
        <time>2022-09-30T08:37:47Z</time>
      </trkpt>
      <trkpt lat="42.89944" lon="3.03501">
        <ele>10</ele>
        <time>2022-09-30T08:37:54Z</time>
      </trkpt>
      <trkpt lat="42.89944" lon="3.03504">
        <ele>10</ele>
        <time>2022-09-30T08:37:56Z</time>
      </trkpt>
      <trkpt lat="42.89943" lon="3.03506">
        <ele>10</ele>
        <time>2022-09-30T08:37:58Z</time>
      </trkpt>
      <trkpt lat="42.89942" lon="3.03509">
        <ele>10</ele>
        <time>2022-09-30T08:38:00Z</time>
      </trkpt>
      <trkpt lat="42.89936" lon="3.03513">
        <ele>10</ele>
        <time>2022-09-30T08:38:09Z</time>
      </trkpt>
      <trkpt lat="42.89935" lon="3.03515">
        <ele>10</ele>
        <time>2022-09-30T08:38:11Z</time>
      </trkpt>
      <trkpt lat="42.89934" lon="3.03519">
        <ele>10</ele>
        <time>2022-09-30T08:38:13Z</time>
      </trkpt>
      <trkpt lat="42.89933" lon="3.03522">
        <ele>10</ele>
        <time>2022-09-30T08:38:15Z</time>
      </trkpt>
      <trkpt lat="42.8993" lon="3.03522">
        <ele>9</ele>
        <time>2022-09-30T08:38:20Z</time>
      </trkpt>
      <trkpt lat="42.89927" lon="3.0353">
        <ele>9</ele>
        <time>2022-09-30T08:38:27Z</time>
      </trkpt>
      <trkpt lat="42.89925" lon="3.03533">
        <ele>9</ele>
        <time>2022-09-30T08:38:29Z</time>
      </trkpt>
      <trkpt lat="42.89924" lon="3.03535">
        <ele>9</ele>
        <time>2022-09-30T08:38:31Z</time>
      </trkpt>
      <trkpt lat="42.89922" lon="3.03536">
        <ele>9</ele>
        <time>2022-09-30T08:38:34Z</time>
      </trkpt>
      <trkpt lat="42.89921" lon="3.03538">
        <ele>9</ele>
        <time>2022-09-30T08:38:37Z</time>
      </trkpt>
      <trkpt lat="42.8991" lon="3.03541">
        <ele>10</ele>
        <time>2022-09-30T08:38:48Z</time>
      </trkpt>
      <trkpt lat="42.89908" lon="3.03541">
        <ele>10</ele>
        <time>2022-09-30T08:38:50Z</time>
      </trkpt>
      <trkpt lat="42.89906" lon="3.03541">
        <ele>10</ele>
        <time>2022-09-30T08:38:53Z</time>
      </trkpt>
      <trkpt lat="42.89901" lon="3.03545">
        <ele>10</ele>
        <time>2022-09-30T08:38:59Z</time>
      </trkpt>
      <trkpt lat="42.89897" lon="3.03551">
        <ele>10</ele>
        <time>2022-09-30T08:39:06Z</time>
      </trkpt>
      <trkpt lat="42.89889" lon="3.03575">
        <ele>10</ele>
        <time>2022-09-30T08:39:30Z</time>
      </trkpt>
      <trkpt lat="42.89888" lon="3.03581">
        <ele>9</ele>
        <time>2022-09-30T08:39:34Z</time>
      </trkpt>
      <trkpt lat="42.89879" lon="3.03601">
        <ele>9</ele>
        <time>2022-09-30T08:39:57Z</time>
      </trkpt>
      <trkpt lat="42.89879" lon="3.03603">
        <ele>9</ele>
        <time>2022-09-30T08:40:01Z</time>
      </trkpt>
      <trkpt lat="42.89877" lon="3.03603">
        <ele>9</ele>
        <time>2022-09-30T08:40:05Z</time>
      </trkpt>
      <trkpt lat="42.89876" lon="3.03609">
        <ele>9</ele>
        <time>2022-09-30T08:41:42Z</time>
      </trkpt>
      <trkpt lat="42.89877" lon="3.03607">
        <ele>8</ele>
        <time>2022-09-30T08:42:02Z</time>
      </trkpt>
      <trkpt lat="42.8988" lon="3.03616">
        <ele>8</ele>
        <time>2022-09-30T08:42:18Z</time>
      </trkpt>
      <trkpt lat="42.89884" lon="3.03621">
        <ele>8</ele>
        <time>2022-09-30T08:42:25Z</time>
      </trkpt>
      <trkpt lat="42.89885" lon="3.03622">
        <ele>8</ele>
        <time>2022-09-30T08:42:27Z</time>
      </trkpt>
      <trkpt lat="42.89894" lon="3.0364">
        <ele>8</ele>
        <time>2022-09-30T08:42:50Z</time>
      </trkpt>
      <trkpt lat="42.89899" lon="3.03645">
        <ele>8</ele>
        <time>2022-09-30T08:42:58Z</time>
      </trkpt>
      <trkpt lat="42.89901" lon="3.03646">
        <ele>8</ele>
        <time>2022-09-30T08:43:01Z</time>
      </trkpt>
      <trkpt lat="42.89918" lon="3.03672">
        <ele>8</ele>
        <time>2022-09-30T08:43:31Z</time>
      </trkpt>
      <trkpt lat="42.89922" lon="3.03678">
        <ele>8</ele>
        <time>2022-09-30T08:43:38Z</time>
      </trkpt>
      <trkpt lat="42.89925" lon="3.03684">
        <ele>8</ele>
        <time>2022-09-30T08:43:45Z</time>
      </trkpt>
      <trkpt lat="42.89933" lon="3.03693">
        <ele>8</ele>
        <time>2022-09-30T08:43:57Z</time>
      </trkpt>
      <trkpt lat="42.89936" lon="3.03701">
        <ele>8</ele>
        <time>2022-09-30T08:44:04Z</time>
      </trkpt>
      <trkpt lat="42.89936" lon="3.03703">
        <ele>8</ele>
        <time>2022-09-30T08:44:06Z</time>
      </trkpt>
      <trkpt lat="42.8994" lon="3.03709">
        <ele>8</ele>
        <time>2022-09-30T08:44:15Z</time>
      </trkpt>
      <trkpt lat="42.89942" lon="3.03711">
        <ele>8</ele>
        <time>2022-09-30T08:44:18Z</time>
      </trkpt>
      <trkpt lat="42.89952" lon="3.03723">
        <ele>9</ele>
        <time>2022-09-30T08:44:30Z</time>
      </trkpt>
      <trkpt lat="42.89955" lon="3.03727">
        <ele>9</ele>
        <time>2022-09-30T08:44:35Z</time>
      </trkpt>
      <trkpt lat="42.89957" lon="3.0373">
        <ele>9</ele>
        <time>2022-09-30T08:44:37Z</time>
      </trkpt>
      <trkpt lat="42.89958" lon="3.03732">
        <ele>9</ele>
        <time>2022-09-30T08:44:39Z</time>
      </trkpt>
      <trkpt lat="42.89962" lon="3.03739">
        <ele>9</ele>
        <time>2022-09-30T08:44:46Z</time>
      </trkpt>
      <trkpt lat="42.89965" lon="3.03742">
        <ele>9</ele>
        <time>2022-09-30T08:44:50Z</time>
      </trkpt>
      <trkpt lat="42.89967" lon="3.03746">
        <ele>8</ele>
        <time>2022-09-30T08:44:54Z</time>
      </trkpt>
      <trkpt lat="42.89968" lon="3.03748">
        <ele>8</ele>
        <time>2022-09-30T08:44:56Z</time>
      </trkpt>
      <trkpt lat="42.89977" lon="3.03769">
        <ele>8</ele>
        <time>2022-09-30T08:45:19Z</time>
      </trkpt>
      <trkpt lat="42.89981" lon="3.03791">
        <ele>7</ele>
        <time>2022-09-30T08:45:36Z</time>
      </trkpt>
      <trkpt lat="42.89982" lon="3.03796">
        <ele>7</ele>
        <time>2022-09-30T08:45:40Z</time>
      </trkpt>
      <trkpt lat="42.89984" lon="3.03798">
        <ele>7</ele>
        <time>2022-09-30T08:45:42Z</time>
      </trkpt>
      <trkpt lat="42.89985" lon="3.03801">
        <ele>7</ele>
        <time>2022-09-30T08:45:45Z</time>
      </trkpt>
      <trkpt lat="42.89986" lon="3.03802">
        <ele>7</ele>
        <time>2022-09-30T08:45:47Z</time>
      </trkpt>
      <trkpt lat="42.89989" lon="3.03809">
        <ele>7</ele>
        <time>2022-09-30T08:45:53Z</time>
      </trkpt>
      <trkpt lat="42.89996" lon="3.03816">
        <ele>6</ele>
        <time>2022-09-30T08:46:05Z</time>
      </trkpt>
      <trkpt lat="42.89998" lon="3.03817">
        <ele>6</ele>
        <time>2022-09-30T08:46:07Z</time>
      </trkpt>
      <trkpt lat="42.89999" lon="3.03818">
        <ele>6</ele>
        <time>2022-09-30T08:46:10Z</time>
      </trkpt>
      <trkpt lat="42.90005" lon="3.03822">
        <ele>6</ele>
        <time>2022-09-30T08:46:18Z</time>
      </trkpt>
      <trkpt lat="42.90007" lon="3.03824">
        <ele>6</ele>
        <time>2022-09-30T08:46:21Z</time>
      </trkpt>
      <trkpt lat="42.90012" lon="3.0383">
        <ele>6</ele>
        <time>2022-09-30T08:46:29Z</time>
      </trkpt>
      <trkpt lat="42.90018" lon="3.03834">
        <ele>6</ele>
        <time>2022-09-30T08:46:35Z</time>
      </trkpt>
      <trkpt lat="42.90019" lon="3.03836">
        <ele>6</ele>
        <time>2022-09-30T08:46:37Z</time>
      </trkpt>
      <trkpt lat="42.9002" lon="3.03838">
        <ele>6</ele>
        <time>2022-09-30T08:46:39Z</time>
      </trkpt>
      <trkpt lat="42.90021" lon="3.0384">
        <ele>6</ele>
        <time>2022-09-30T08:46:42Z</time>
      </trkpt>
      <trkpt lat="42.90022" lon="3.03842">
        <ele>6</ele>
        <time>2022-09-30T08:46:47Z</time>
      </trkpt>
      <trkpt lat="42.90022" lon="3.03846">
        <ele>6</ele>
        <time>2022-09-30T08:46:50Z</time>
      </trkpt>
      <trkpt lat="42.90022" lon="3.03851">
        <ele>6</ele>
        <time>2022-09-30T08:46:52Z</time>
      </trkpt>
      <trkpt lat="42.90024" lon="3.03855">
        <ele>5</ele>
        <time>2022-09-30T08:46:54Z</time>
      </trkpt>
      <trkpt lat="42.90031" lon="3.03862">
        <ele>5</ele>
        <time>2022-09-30T08:47:03Z</time>
      </trkpt>
      <trkpt lat="42.90033" lon="3.03874">
        <ele>5</ele>
        <time>2022-09-30T08:47:12Z</time>
      </trkpt>
      <trkpt lat="42.90036" lon="3.03883">
        <ele>5</ele>
        <time>2022-09-30T08:47:22Z</time>
      </trkpt>
      <trkpt lat="42.90051" lon="3.03911">
        <ele>4</ele>
        <time>2022-09-30T08:47:52Z</time>
      </trkpt>
      <trkpt lat="42.90053" lon="3.03918">
        <ele>4</ele>
        <time>2022-09-30T08:48:00Z</time>
      </trkpt>
      <trkpt lat="42.90058" lon="3.03928">
        <ele>4</ele>
        <time>2022-09-30T08:48:10Z</time>
      </trkpt>
      <trkpt lat="42.9006" lon="3.03929">
        <ele>4</ele>
        <time>2022-09-30T08:48:13Z</time>
      </trkpt>
      <trkpt lat="42.90064" lon="3.03936">
        <ele>3</ele>
        <time>2022-09-30T08:48:22Z</time>
      </trkpt>
      <trkpt lat="42.90068" lon="3.03947">
        <ele>3</ele>
        <time>2022-09-30T08:48:35Z</time>
      </trkpt>
      <trkpt lat="42.90069" lon="3.03951">
        <ele>2</ele>
        <time>2022-09-30T08:48:39Z</time>
      </trkpt>
      <trkpt lat="42.90072" lon="3.03958">
        <ele>2</ele>
        <time>2022-09-30T08:48:47Z</time>
      </trkpt>
      <trkpt lat="42.90073" lon="3.0396">
        <ele>2</ele>
        <time>2022-09-30T08:48:49Z</time>
      </trkpt>
      <trkpt lat="42.90075" lon="3.0396">
        <ele>2</ele>
        <time>2022-09-30T08:48:51Z</time>
      </trkpt>
      <trkpt lat="42.90082" lon="3.03957">
        <ele>2</ele>
        <time>2022-09-30T08:48:59Z</time>
      </trkpt>
      <trkpt lat="42.90086" lon="3.03957">
        <ele>1</ele>
        <time>2022-09-30T08:49:04Z</time>
      </trkpt>
      <trkpt lat="42.90087" lon="3.03957">
        <ele>1</ele>
        <time>2022-09-30T08:49:06Z</time>
      </trkpt>
      <trkpt lat="42.90089" lon="3.03955">
        <ele>1</ele>
        <time>2022-09-30T08:49:10Z</time>
      </trkpt>
      <trkpt lat="42.90091" lon="3.03954">
        <ele>1</ele>
        <time>2022-09-30T08:49:13Z</time>
      </trkpt>
      <trkpt lat="42.90098" lon="3.0395">
        <ele>1</ele>
        <time>2022-09-30T08:49:25Z</time>
      </trkpt>
      <trkpt lat="42.90103" lon="3.03945">
        <ele>3</ele>
        <time>2022-09-30T08:49:35Z</time>
      </trkpt>
      <trkpt lat="42.90103" lon="3.03943">
        <ele>2.9</ele>
        <time>2022-09-30T08:49:38Z</time>
      </trkpt>
      <trkpt lat="42.90105" lon="3.03942">
        <ele>2.8</ele>
        <time>2022-09-30T08:49:40Z</time>
      </trkpt>
      <trkpt lat="42.90106" lon="3.03939">
        <ele>2.7</ele>
        <time>2022-09-30T08:49:42Z</time>
      </trkpt>
      <trkpt lat="42.90107" lon="3.03938">
        <ele>2.6</ele>
        <time>2022-09-30T08:49:48Z</time>
      </trkpt>
      <trkpt lat="42.90107" lon="3.03935">
        <ele>2.4</ele>
        <time>2022-09-30T08:49:58Z</time>
      </trkpt>
      <trkpt lat="42.90106" lon="3.03933">
        <ele>2.3</ele>
        <time>2022-09-30T08:50:01Z</time>
      </trkpt>
      <trkpt lat="42.90107" lon="3.03931">
        <ele>2.2</ele>
        <time>2022-09-30T08:50:09Z</time>
      </trkpt>
      <trkpt lat="42.90106" lon="3.03929">
        <ele>-1</ele>
        <time>2022-09-30T08:50:22Z</time>
      </trkpt>
      <trkpt lat="42.90105" lon="3.03927">
        <ele>-1</ele>
        <time>2022-09-30T08:50:26Z</time>
      </trkpt>
      <trkpt lat="42.90105" lon="3.03926">
        <ele>-4</ele>
        <time>2022-09-30T08:55:22Z</time>
      </trkpt>
      <trkpt lat="42.90106" lon="3.03923">
        <ele>-4</ele>
        <time>2022-09-30T08:55:26Z</time>
      </trkpt>
      <trkpt lat="42.90106" lon="3.03918">
        <ele>-4</ele>
        <time>2022-09-30T08:55:29Z</time>
      </trkpt>
      <trkpt lat="42.90106" lon="3.03916">
        <ele>-4</ele>
        <time>2022-09-30T08:55:31Z</time>
      </trkpt>
      <trkpt lat="42.90107" lon="3.03905">
        <ele>-4</ele>
        <time>2022-09-30T08:55:40Z</time>
      </trkpt>
      <trkpt lat="42.90107" lon="3.03903">
        <ele>-4</ele>
        <time>2022-09-30T08:55:42Z</time>
      </trkpt>
      <trkpt lat="42.90107" lon="3.039">
        <ele>-4</ele>
        <time>2022-09-30T08:55:46Z</time>
      </trkpt>
      <trkpt lat="42.90109" lon="3.03886">
        <ele>-4</ele>
        <time>2022-09-30T08:55:58Z</time>
      </trkpt>
      <trkpt lat="42.9011" lon="3.03884">
        <ele>-4</ele>
        <time>2022-09-30T08:56:00Z</time>
      </trkpt>
      <trkpt lat="42.9011" lon="3.03882">
        <ele>-4</ele>
        <time>2022-09-30T08:56:02Z</time>
      </trkpt>
      <trkpt lat="42.90112" lon="3.03873">
        <ele>-3</ele>
        <time>2022-09-30T08:56:12Z</time>
      </trkpt>
      <trkpt lat="42.90113" lon="3.0387">
        <ele>-3</ele>
        <time>2022-09-30T08:56:14Z</time>
      </trkpt>
      <trkpt lat="42.90115" lon="3.03868">
        <ele>-3</ele>
        <time>2022-09-30T08:56:16Z</time>
      </trkpt>
      <trkpt lat="42.90116" lon="3.03864">
        <ele>-3</ele>
        <time>2022-09-30T08:56:20Z</time>
      </trkpt>
      <trkpt lat="42.90116" lon="3.03863">
        <ele>-3</ele>
        <time>2022-09-30T08:56:23Z</time>
      </trkpt>
      <trkpt lat="42.90117" lon="3.0386">
        <ele>-3</ele>
        <time>2022-09-30T08:56:36Z</time>
      </trkpt>
      <trkpt lat="42.90117" lon="3.03857">
        <ele>-3</ele>
        <time>2022-09-30T08:56:41Z</time>
      </trkpt>
      <trkpt lat="42.90115" lon="3.03855">
        <ele>-3</ele>
        <time>2022-09-30T08:56:45Z</time>
      </trkpt>
      <trkpt lat="42.90113" lon="3.03854">
        <ele>-3</ele>
        <time>2022-09-30T08:56:50Z</time>
      </trkpt>
      <trkpt lat="42.90112" lon="3.0385">
        <ele>-3</ele>
        <time>2022-09-30T08:56:54Z</time>
      </trkpt>
      <trkpt lat="42.90113" lon="3.03847">
        <ele>-3</ele>
        <time>2022-09-30T08:56:56Z</time>
      </trkpt>
      <trkpt lat="42.90111" lon="3.03845">
        <ele>-3</ele>
        <time>2022-09-30T08:56:58Z</time>
      </trkpt>
      <trkpt lat="42.90109" lon="3.03843">
        <ele>-3</ele>
        <time>2022-09-30T08:57:02Z</time>
      </trkpt>
      <trkpt lat="42.90109" lon="3.03836">
        <ele>-3</ele>
        <time>2022-09-30T08:57:07Z</time>
      </trkpt>
      <trkpt lat="42.90108" lon="3.03835">
        <ele>-3</ele>
        <time>2022-09-30T08:57:11Z</time>
      </trkpt>
      <trkpt lat="42.90108" lon="3.03827">
        <ele>-2</ele>
        <time>2022-09-30T08:57:31Z</time>
      </trkpt>
      <trkpt lat="42.90108" lon="3.0382">
        <ele>-2</ele>
        <time>2022-09-30T08:57:38Z</time>
      </trkpt>
      <trkpt lat="42.90108" lon="3.03817">
        <ele>-2</ele>
        <time>2022-09-30T08:57:40Z</time>
      </trkpt>
      <trkpt lat="42.90109" lon="3.03813">
        <ele>-2</ele>
        <time>2022-09-30T08:57:44Z</time>
      </trkpt>
      <trkpt lat="42.9011" lon="3.03806">
        <ele>-2</ele>
        <time>2022-09-30T08:57:51Z</time>
      </trkpt>
      <trkpt lat="42.90112" lon="3.03799">
        <ele>-2</ele>
        <time>2022-09-30T08:57:56Z</time>
      </trkpt>
      <trkpt lat="42.90113" lon="3.03797">
        <ele>-2</ele>
        <time>2022-09-30T08:57:59Z</time>
      </trkpt>
      <trkpt lat="42.90117" lon="3.03793">
        <ele>-2</ele>
        <time>2022-09-30T08:58:05Z</time>
      </trkpt>
      <trkpt lat="42.90122" lon="3.03777">
        <ele>-2</ele>
        <time>2022-09-30T08:58:24Z</time>
      </trkpt>
      <trkpt lat="42.90123" lon="3.03775">
        <ele>-2</ele>
        <time>2022-09-30T08:58:26Z</time>
      </trkpt>
      <trkpt lat="42.90125" lon="3.03772">
        <ele>-2</ele>
        <time>2022-09-30T08:58:30Z</time>
      </trkpt>
      <trkpt lat="42.90129" lon="3.03764">
        <ele>-2</ele>
        <time>2022-09-30T08:58:39Z</time>
      </trkpt>
      <trkpt lat="42.9013" lon="3.03763">
        <ele>-2</ele>
        <time>2022-09-30T08:58:42Z</time>
      </trkpt>
      <trkpt lat="42.90137" lon="3.03756">
        <ele>-2</ele>
        <time>2022-09-30T08:58:53Z</time>
      </trkpt>
      <trkpt lat="42.90138" lon="3.03755">
        <ele>-2</ele>
        <time>2022-09-30T08:58:54Z</time>
      </trkpt>
      <trkpt lat="42.90144" lon="3.03752">
        <ele>-1</ele>
        <time>2022-09-30T08:59:00Z</time>
      </trkpt>
      <trkpt lat="42.90146" lon="3.03752">
        <ele>-1</ele>
        <time>2022-09-30T08:59:02Z</time>
      </trkpt>
      <trkpt lat="42.90148" lon="3.03753">
        <ele>-1</ele>
        <time>2022-09-30T08:59:04Z</time>
      </trkpt>
      <trkpt lat="42.9015" lon="3.03752">
        <ele>-1</ele>
        <time>2022-09-30T08:59:08Z</time>
      </trkpt>
      <trkpt lat="42.90152" lon="3.0375">
        <ele>-1</ele>
        <time>2022-09-30T08:59:10Z</time>
      </trkpt>
      <trkpt lat="42.90153" lon="3.03749">
        <ele>-1</ele>
        <time>2022-09-30T08:59:12Z</time>
      </trkpt>
      <trkpt lat="42.90158" lon="3.03747">
        <ele>-1</ele>
        <time>2022-09-30T08:59:16Z</time>
      </trkpt>
      <trkpt lat="42.90159" lon="3.03745">
        <ele>-1</ele>
        <time>2022-09-30T08:59:18Z</time>
      </trkpt>
      <trkpt lat="42.90161" lon="3.03744">
        <ele>-1</ele>
        <time>2022-09-30T08:59:21Z</time>
      </trkpt>
      <trkpt lat="42.90166" lon="3.0374">
        <ele>11.6</ele>
        <time>2022-09-30T08:59:28Z</time>
      </trkpt>
      <trkpt lat="42.90167" lon="3.03736">
        <ele>11.5</ele>
        <time>2022-09-30T08:59:33Z</time>
      </trkpt>
      <trkpt lat="42.90167" lon="3.03728">
        <ele>11</ele>
        <time>2022-09-30T08:59:42Z</time>
      </trkpt>
      <trkpt lat="42.90168" lon="3.03726">
        <ele>1</ele>
        <time>2022-09-30T08:59:44Z</time>
      </trkpt>
      <trkpt lat="42.90178" lon="3.03711">
        <ele>1</ele>
        <time>2022-09-30T09:00:01Z</time>
      </trkpt>
      <trkpt lat="42.90179" lon="3.03709">
        <ele>1</ele>
        <time>2022-09-30T09:00:03Z</time>
      </trkpt>
      <trkpt lat="42.9018" lon="3.03707">
        <ele>1</ele>
        <time>2022-09-30T09:00:05Z</time>
      </trkpt>
      <trkpt lat="42.90184" lon="3.03697">
        <ele>2</ele>
        <time>2022-09-30T09:00:15Z</time>
      </trkpt>
      <trkpt lat="42.90185" lon="3.03696">
        <ele>2</ele>
        <time>2022-09-30T09:00:17Z</time>
      </trkpt>
      <trkpt lat="42.90187" lon="3.03691">
        <ele>2</ele>
        <time>2022-09-30T09:00:21Z</time>
      </trkpt>
      <trkpt lat="42.90189" lon="3.03687">
        <ele>2</ele>
        <time>2022-09-30T09:00:25Z</time>
      </trkpt>
      <trkpt lat="42.90191" lon="3.03686">
        <ele>2</ele>
        <time>2022-09-30T09:00:27Z</time>
      </trkpt>
      <trkpt lat="42.90192" lon="3.03684">
        <ele>3</ele>
        <time>2022-09-30T09:00:30Z</time>
      </trkpt>
      <trkpt lat="42.90193" lon="3.03683">
        <ele>3</ele>
        <time>2022-09-30T09:00:32Z</time>
      </trkpt>
      <trkpt lat="42.90195" lon="3.03682">
        <ele>3</ele>
        <time>2022-09-30T09:00:34Z</time>
      </trkpt>
      <trkpt lat="42.90195" lon="3.0368">
        <ele>3</ele>
        <time>2022-09-30T09:00:38Z</time>
      </trkpt>
      <trkpt lat="42.90197" lon="3.0368">
        <ele>3</ele>
        <time>2022-09-30T09:00:41Z</time>
      </trkpt>
      <trkpt lat="42.90198" lon="3.03679">
        <ele>3</ele>
        <time>2022-09-30T09:00:43Z</time>
      </trkpt>
      <trkpt lat="42.90199" lon="3.03677">
        <ele>5</ele>
        <time>2022-09-30T09:01:32Z</time>
      </trkpt>
      <trkpt lat="42.90201" lon="3.03676">
        <ele>5</ele>
        <time>2022-09-30T09:01:35Z</time>
      </trkpt>
      <trkpt lat="42.90202" lon="3.03674">
        <ele>5</ele>
        <time>2022-09-30T09:01:37Z</time>
      </trkpt>
      <trkpt lat="42.90203" lon="3.03672">
        <ele>5</ele>
        <time>2022-09-30T09:01:39Z</time>
      </trkpt>
      <trkpt lat="42.90202" lon="3.0367">
        <ele>5</ele>
        <time>2022-09-30T09:01:41Z</time>
      </trkpt>
      <trkpt lat="42.90203" lon="3.03666">
        <ele>5</ele>
        <time>2022-09-30T09:01:45Z</time>
      </trkpt>
      <trkpt lat="42.90203" lon="3.03663">
        <ele>5</ele>
        <time>2022-09-30T09:01:47Z</time>
      </trkpt>
      <trkpt lat="42.90204" lon="3.03662">
        <ele>5</ele>
        <time>2022-09-30T09:01:53Z</time>
      </trkpt>
      <trkpt lat="42.90205" lon="3.03659">
        <ele>5</ele>
        <time>2022-09-30T09:01:56Z</time>
      </trkpt>
      <trkpt lat="42.90204" lon="3.03657">
        <ele>5</ele>
        <time>2022-09-30T09:01:59Z</time>
      </trkpt>
      <trkpt lat="42.90204" lon="3.03655">
        <ele>5</ele>
        <time>2022-09-30T09:02:01Z</time>
      </trkpt>
      <trkpt lat="42.90204" lon="3.03652">
        <ele>6</ele>
        <time>2022-09-30T09:02:03Z</time>
      </trkpt>
      <trkpt lat="42.90204" lon="3.0365">
        <ele>6</ele>
        <time>2022-09-30T09:02:05Z</time>
      </trkpt>
      <trkpt lat="42.90204" lon="3.03644">
        <ele>6</ele>
        <time>2022-09-30T09:02:11Z</time>
      </trkpt>
      <trkpt lat="42.90204" lon="3.03642">
        <ele>6</ele>
        <time>2022-09-30T09:02:13Z</time>
      </trkpt>
      <trkpt lat="42.90204" lon="3.03639">
        <ele>6</ele>
        <time>2022-09-30T09:02:16Z</time>
      </trkpt>
      <trkpt lat="42.90204" lon="3.03637">
        <ele>6</ele>
        <time>2022-09-30T09:02:17Z</time>
      </trkpt>
      <trkpt lat="42.90203" lon="3.03633">
        <ele>6</ele>
        <time>2022-09-30T09:02:21Z</time>
      </trkpt>
      <trkpt lat="42.90203" lon="3.0363">
        <ele>7</ele>
        <time>2022-09-30T09:02:24Z</time>
      </trkpt>
      <trkpt lat="42.90204" lon="3.03623">
        <ele>7</ele>
        <time>2022-09-30T09:02:32Z</time>
      </trkpt>
      <trkpt lat="42.90204" lon="3.0362">
        <ele>7</ele>
        <time>2022-09-30T09:02:34Z</time>
      </trkpt>
      <trkpt lat="42.90204" lon="3.03618">
        <ele>7</ele>
        <time>2022-09-30T09:02:36Z</time>
      </trkpt>
      <trkpt lat="42.90204" lon="3.03616">
        <ele>7</ele>
        <time>2022-09-30T09:02:38Z</time>
      </trkpt>
      <trkpt lat="42.90204" lon="3.03613">
        <ele>7</ele>
        <time>2022-09-30T09:02:40Z</time>
      </trkpt>
      <trkpt lat="42.90203" lon="3.03605">
        <ele>8</ele>
        <time>2022-09-30T09:02:46Z</time>
      </trkpt>
      <trkpt lat="42.90203" lon="3.03604">
        <ele>8</ele>
        <time>2022-09-30T09:02:48Z</time>
      </trkpt>
      <trkpt lat="42.90203" lon="3.03601">
        <ele>8</ele>
        <time>2022-09-30T09:02:50Z</time>
      </trkpt>
      <trkpt lat="42.90202" lon="3.03599">
        <ele>8</ele>
        <time>2022-09-30T09:02:52Z</time>
      </trkpt>
      <trkpt lat="42.90202" lon="3.03597">
        <ele>8</ele>
        <time>2022-09-30T09:02:54Z</time>
      </trkpt>
      <trkpt lat="42.902" lon="3.03585">
        <ele>8</ele>
        <time>2022-09-30T09:03:06Z</time>
      </trkpt>
      <trkpt lat="42.90199" lon="3.03583">
        <ele>8</ele>
        <time>2022-09-30T09:03:09Z</time>
      </trkpt>
      <trkpt lat="42.90198" lon="3.03581">
        <ele>8</ele>
        <time>2022-09-30T09:03:12Z</time>
      </trkpt>
      <trkpt lat="42.90196" lon="3.03577">
        <ele>9</ele>
        <time>2022-09-30T09:03:18Z</time>
      </trkpt>
      <trkpt lat="42.90194" lon="3.03573">
        <ele>9</ele>
        <time>2022-09-30T09:03:22Z</time>
      </trkpt>
      <trkpt lat="42.90194" lon="3.03571">
        <ele>9</ele>
        <time>2022-09-30T09:03:25Z</time>
      </trkpt>
      <trkpt lat="42.90194" lon="3.03569">
        <ele>9</ele>
        <time>2022-09-30T09:03:28Z</time>
      </trkpt>
      <trkpt lat="42.90193" lon="3.03567">
        <ele>9</ele>
        <time>2022-09-30T09:03:32Z</time>
      </trkpt>
      <trkpt lat="42.90192" lon="3.03566">
        <ele>9</ele>
        <time>2022-09-30T09:03:34Z</time>
      </trkpt>
      <trkpt lat="42.90191" lon="3.03564">
        <ele>9</ele>
        <time>2022-09-30T09:03:37Z</time>
      </trkpt>
      <trkpt lat="42.90191" lon="3.03562">
        <ele>10</ele>
        <time>2022-09-30T09:03:40Z</time>
      </trkpt>
      <trkpt lat="42.90189" lon="3.03554">
        <ele>10</ele>
        <time>2022-09-30T09:03:51Z</time>
      </trkpt>
      <trkpt lat="42.90186" lon="3.03544">
        <ele>11</ele>
        <time>2022-09-30T09:04:00Z</time>
      </trkpt>
      <trkpt lat="42.90185" lon="3.03543">
        <ele>11</ele>
        <time>2022-09-30T09:04:02Z</time>
      </trkpt>
      <trkpt lat="42.90184" lon="3.03541">
        <ele>11</ele>
        <time>2022-09-30T09:04:05Z</time>
      </trkpt>
      <trkpt lat="42.90181" lon="3.0354">
        <ele>11</ele>
        <time>2022-09-30T09:04:10Z</time>
      </trkpt>
      <trkpt lat="42.90179" lon="3.0354">
        <ele>11</ele>
        <time>2022-09-30T09:04:12Z</time>
      </trkpt>
      <trkpt lat="42.90178" lon="3.0354">
        <ele>12</ele>
        <time>2022-09-30T09:04:14Z</time>
      </trkpt>
      <trkpt lat="42.90176" lon="3.03541">
        <ele>12</ele>
        <time>2022-09-30T09:04:16Z</time>
      </trkpt>
      <trkpt lat="42.90172" lon="3.03541">
        <ele>12</ele>
        <time>2022-09-30T09:04:20Z</time>
      </trkpt>
      <trkpt lat="42.90171" lon="3.03542">
        <ele>12</ele>
        <time>2022-09-30T09:04:22Z</time>
      </trkpt>
      <trkpt lat="42.90169" lon="3.03542">
        <ele>12</ele>
        <time>2022-09-30T09:04:24Z</time>
      </trkpt>
      <trkpt lat="42.90167" lon="3.03541">
        <ele>12</ele>
        <time>2022-09-30T09:04:25Z</time>
      </trkpt>
      <trkpt lat="42.90165" lon="3.03541">
        <ele>12</ele>
        <time>2022-09-30T09:04:27Z</time>
      </trkpt>
      <trkpt lat="42.90164" lon="3.03541">
        <ele>12</ele>
        <time>2022-09-30T09:04:29Z</time>
      </trkpt>
      <trkpt lat="42.90162" lon="3.03541">
        <ele>12</ele>
        <time>2022-09-30T09:04:31Z</time>
      </trkpt>
      <trkpt lat="42.90161" lon="3.0354">
        <ele>12</ele>
        <time>2022-09-30T09:04:33Z</time>
      </trkpt>
      <trkpt lat="42.90158" lon="3.03536">
        <ele>12</ele>
        <time>2022-09-30T09:04:38Z</time>
      </trkpt>
      <trkpt lat="42.9015" lon="3.03527">
        <ele>13</ele>
        <time>2022-09-30T09:04:51Z</time>
      </trkpt>
      <trkpt lat="42.90149" lon="3.03526">
        <ele>13</ele>
        <time>2022-09-30T09:04:53Z</time>
      </trkpt>
      <trkpt lat="42.90145" lon="3.03521">
        <ele>13</ele>
        <time>2022-09-30T09:04:58Z</time>
      </trkpt>
      <trkpt lat="42.90144" lon="3.03519">
        <ele>13</ele>
        <time>2022-09-30T09:05:00Z</time>
      </trkpt>
      <trkpt lat="42.90139" lon="3.03511">
        <ele>14</ele>
        <time>2022-09-30T09:05:09Z</time>
      </trkpt>
      <trkpt lat="42.9013" lon="3.03501">
        <ele>14</ele>
        <time>2022-09-30T09:05:22Z</time>
      </trkpt>
      <trkpt lat="42.90125" lon="3.03498">
        <ele>14</ele>
        <time>2022-09-30T09:05:28Z</time>
      </trkpt>
      <trkpt lat="42.90123" lon="3.03497">
        <ele>14</ele>
        <time>2022-09-30T09:05:30Z</time>
      </trkpt>
      <trkpt lat="42.90122" lon="3.03496">
        <ele>14</ele>
        <time>2022-09-30T09:05:31Z</time>
      </trkpt>
      <trkpt lat="42.90121" lon="3.03495">
        <ele>14</ele>
        <time>2022-09-30T09:05:34Z</time>
      </trkpt>
      <trkpt lat="42.90117" lon="3.03493">
        <ele>15</ele>
        <time>2022-09-30T09:05:38Z</time>
      </trkpt>
      <trkpt lat="42.90103" lon="3.03489">
        <ele>15</ele>
        <time>2022-09-30T09:05:55Z</time>
      </trkpt>
      <trkpt lat="42.90102" lon="3.03488">
        <ele>15</ele>
        <time>2022-09-30T09:05:57Z</time>
      </trkpt>
      <trkpt lat="42.901" lon="3.03488">
        <ele>15</ele>
        <time>2022-09-30T09:05:59Z</time>
      </trkpt>
      <trkpt lat="42.90094" lon="3.03486">
        <ele>15</ele>
        <time>2022-09-30T09:06:05Z</time>
      </trkpt>
      <trkpt lat="42.90092" lon="3.03486">
        <ele>15</ele>
        <time>2022-09-30T09:06:07Z</time>
      </trkpt>
      <trkpt lat="42.90087" lon="3.03484">
        <ele>15</ele>
        <time>2022-09-30T09:06:13Z</time>
      </trkpt>
      <trkpt lat="42.90086" lon="3.03483">
        <ele>15</ele>
        <time>2022-09-30T09:06:15Z</time>
      </trkpt>
      <trkpt lat="42.90084" lon="3.03483">
        <ele>15</ele>
        <time>2022-09-30T09:06:17Z</time>
      </trkpt>
      <trkpt lat="42.90082" lon="3.03482">
        <ele>15</ele>
        <time>2022-09-30T09:06:18Z</time>
      </trkpt>
      <trkpt lat="42.90079" lon="3.03482">
        <ele>15</ele>
        <time>2022-09-30T09:06:23Z</time>
      </trkpt>
      <trkpt lat="42.90076" lon="3.0348">
        <ele>15</ele>
        <time>2022-09-30T09:06:26Z</time>
      </trkpt>
      <trkpt lat="42.90074" lon="3.0348">
        <ele>15</ele>
        <time>2022-09-30T09:06:28Z</time>
      </trkpt>
      <trkpt lat="42.90072" lon="3.0348">
        <ele>15</ele>
        <time>2022-09-30T09:06:30Z</time>
      </trkpt>
      <trkpt lat="42.90071" lon="3.0348">
        <ele>15</ele>
        <time>2022-09-30T09:06:32Z</time>
      </trkpt>
      <trkpt lat="42.90069" lon="3.0348">
        <ele>15</ele>
        <time>2022-09-30T09:06:34Z</time>
      </trkpt>
      <trkpt lat="42.90068" lon="3.0348">
        <ele>15</ele>
        <time>2022-09-30T09:06:36Z</time>
      </trkpt>
      <trkpt lat="42.90067" lon="3.03481">
        <ele>15</ele>
        <time>2022-09-30T09:06:38Z</time>
      </trkpt>
      <trkpt lat="42.90066" lon="3.03483">
        <ele>15</ele>
        <time>2022-09-30T09:06:40Z</time>
      </trkpt>
      <trkpt lat="42.90064" lon="3.03484">
        <ele>15</ele>
        <time>2022-09-30T09:06:42Z</time>
      </trkpt>
      <trkpt lat="42.90062" lon="3.03486">
        <ele>16</ele>
        <time>2022-09-30T09:06:45Z</time>
      </trkpt>
      <trkpt lat="42.90061" lon="3.03487">
        <ele>16</ele>
        <time>2022-09-30T09:06:48Z</time>
      </trkpt>
      <trkpt lat="42.90059" lon="3.03488">
        <ele>16</ele>
        <time>2022-09-30T09:06:51Z</time>
      </trkpt>
      <trkpt lat="42.90058" lon="3.03489">
        <ele>16</ele>
        <time>2022-09-30T09:06:55Z</time>
      </trkpt>
      <trkpt lat="42.90056" lon="3.0349">
        <ele>16</ele>
        <time>2022-09-30T09:06:57Z</time>
      </trkpt>
      <trkpt lat="42.90054" lon="3.0349">
        <ele>16</ele>
        <time>2022-09-30T09:07:00Z</time>
      </trkpt>
      <trkpt lat="42.90051" lon="3.03493">
        <ele>16</ele>
        <time>2022-09-30T09:07:03Z</time>
      </trkpt>
      <trkpt lat="42.9005" lon="3.03493">
        <ele>16</ele>
        <time>2022-09-30T09:07:07Z</time>
      </trkpt>
      <trkpt lat="42.90048" lon="3.03493">
        <ele>16</ele>
        <time>2022-09-30T09:07:10Z</time>
      </trkpt>
      <trkpt lat="42.90041" lon="3.03488">
        <ele>16</ele>
        <time>2022-09-30T09:07:35Z</time>
      </trkpt>
      <trkpt lat="42.90039" lon="3.03487">
        <ele>17</ele>
        <time>2022-09-30T09:07:38Z</time>
      </trkpt>
      <trkpt lat="42.90038" lon="3.03486">
        <ele>17</ele>
        <time>2022-09-30T09:07:41Z</time>
      </trkpt>
      <trkpt lat="42.90036" lon="3.03486">
        <ele>17</ele>
        <time>2022-09-30T09:07:43Z</time>
      </trkpt>
      <trkpt lat="42.90032" lon="3.03485">
        <ele>17</ele>
        <time>2022-09-30T09:07:49Z</time>
      </trkpt>
      <trkpt lat="42.9003" lon="3.03485">
        <ele>17</ele>
        <time>2022-09-30T09:07:52Z</time>
      </trkpt>
      <trkpt lat="42.9003" lon="3.03483">
        <ele>17</ele>
        <time>2022-09-30T09:07:56Z</time>
      </trkpt>
      <trkpt lat="42.90029" lon="3.0348">
        <ele>17</ele>
        <time>2022-09-30T09:07:59Z</time>
      </trkpt>
      <trkpt lat="42.9003" lon="3.03482">
        <ele>17</ele>
        <time>2022-09-30T09:09:28Z</time>
      </trkpt>
      <trkpt lat="42.90036" lon="3.0348">
        <ele>17</ele>
        <time>2022-09-30T09:09:36Z</time>
      </trkpt>
      <trkpt lat="42.90037" lon="3.0348">
        <ele>17</ele>
        <time>2022-09-30T09:09:38Z</time>
      </trkpt>
      <trkpt lat="42.9004" lon="3.03482">
        <ele>17</ele>
        <time>2022-09-30T09:09:42Z</time>
      </trkpt>
      <trkpt lat="42.90041" lon="3.03484">
        <ele>17</ele>
        <time>2022-09-30T09:09:54Z</time>
      </trkpt>
      <trkpt lat="42.90044" lon="3.03488">
        <ele>17</ele>
        <time>2022-09-30T09:10:01Z</time>
      </trkpt>
      <trkpt lat="42.90045" lon="3.03498">
        <ele>17</ele>
        <time>2022-09-30T09:10:12Z</time>
      </trkpt>
      <trkpt lat="42.9004" lon="3.03503">
        <ele>18</ele>
        <time>2022-09-30T09:10:29Z</time>
      </trkpt>
      <trkpt lat="42.9004" lon="3.03506">
        <ele>18</ele>
        <time>2022-09-30T09:10:33Z</time>
      </trkpt>
      <trkpt lat="42.90039" lon="3.03508">
        <ele>18</ele>
        <time>2022-09-30T09:10:36Z</time>
      </trkpt>
      <trkpt lat="42.9004" lon="3.03511">
        <ele>18</ele>
        <time>2022-09-30T09:10:40Z</time>
      </trkpt>
      <trkpt lat="42.90038" lon="3.03514">
        <ele>18</ele>
        <time>2022-09-30T09:10:48Z</time>
      </trkpt>
      <trkpt lat="42.90036" lon="3.03515">
        <ele>18</ele>
        <time>2022-09-30T09:10:50Z</time>
      </trkpt>
      <trkpt lat="42.90033" lon="3.03516">
        <ele>18</ele>
        <time>2022-09-30T09:10:54Z</time>
      </trkpt>
      <trkpt lat="42.9003" lon="3.03519">
        <ele>18</ele>
        <time>2022-09-30T09:11:01Z</time>
      </trkpt>
      <trkpt lat="42.90028" lon="3.03521">
        <ele>18</ele>
        <time>2022-09-30T09:11:05Z</time>
      </trkpt>
      <trkpt lat="42.90026" lon="3.03523">
        <ele>18</ele>
        <time>2022-09-30T09:11:08Z</time>
      </trkpt>
      <trkpt lat="42.90042" lon="3.03548">
        <ele>17</ele>
        <time>2022-09-30T09:11:40Z</time>
      </trkpt>
      <trkpt lat="42.90034" lon="3.03537">
        <ele>17</ele>
        <time>2022-09-30T09:11:56Z</time>
      </trkpt>
      <trkpt lat="42.90038" lon="3.03539">
        <ele>17</ele>
        <time>2022-09-30T09:12:21Z</time>
      </trkpt>
      <trkpt lat="42.90033" lon="3.03525">
        <ele>17</ele>
        <time>2022-09-30T09:12:25Z</time>
      </trkpt>
      <trkpt lat="42.90031" lon="3.03519">
        <ele>17</ele>
        <time>2022-09-30T09:12:27Z</time>
      </trkpt>
      <trkpt lat="42.90034" lon="3.03512">
        <ele>17</ele>
        <time>2022-09-30T09:12:33Z</time>
      </trkpt>
      <trkpt lat="42.90035" lon="3.03509">
        <ele>17</ele>
        <time>2022-09-30T09:12:34Z</time>
      </trkpt>
      <trkpt lat="42.90035" lon="3.03507">
        <ele>17</ele>
        <time>2022-09-30T09:12:36Z</time>
      </trkpt>
      <trkpt lat="42.90033" lon="3.03505">
        <ele>16</ele>
        <time>2022-09-30T09:12:39Z</time>
      </trkpt>
      <trkpt lat="42.90034" lon="3.03503">
        <ele>16</ele>
        <time>2022-09-30T09:12:42Z</time>
      </trkpt>
      <trkpt lat="42.9004" lon="3.03492">
        <ele>16</ele>
        <time>2022-09-30T09:12:53Z</time>
      </trkpt>
      <trkpt lat="42.90042" lon="3.03492">
        <ele>16</ele>
        <time>2022-09-30T09:12:58Z</time>
      </trkpt>
      <trkpt lat="42.90041" lon="3.0349">
        <ele>16</ele>
        <time>2022-09-30T09:13:01Z</time>
      </trkpt>
      <trkpt lat="42.90039" lon="3.03489">
        <ele>16</ele>
        <time>2022-09-30T09:13:04Z</time>
      </trkpt>
      <trkpt lat="42.90038" lon="3.03488">
        <ele>16</ele>
        <time>2022-09-30T09:13:08Z</time>
      </trkpt>
      <trkpt lat="42.9004" lon="3.03487">
        <ele>16</ele>
        <time>2022-09-30T09:13:32Z</time>
      </trkpt>
      <trkpt lat="42.90038" lon="3.03487">
        <ele>16</ele>
        <time>2022-09-30T09:13:34Z</time>
      </trkpt>
      <trkpt lat="42.90038" lon="3.03485">
        <ele>16</ele>
        <time>2022-09-30T09:13:38Z</time>
      </trkpt>
      <trkpt lat="42.90035" lon="3.03482">
        <ele>16</ele>
        <time>2022-09-30T09:13:42Z</time>
      </trkpt>
      <trkpt lat="42.90035" lon="3.0348">
        <ele>16</ele>
        <time>2022-09-30T09:13:43Z</time>
      </trkpt>
      <trkpt lat="42.90034" lon="3.03478">
        <ele>16</ele>
        <time>2022-09-30T09:13:44Z</time>
      </trkpt>
      <trkpt lat="42.90033" lon="3.03476">
        <ele>16</ele>
        <time>2022-09-30T09:13:46Z</time>
      </trkpt>
      <trkpt lat="42.90032" lon="3.03474">
        <ele>16</ele>
        <time>2022-09-30T09:13:50Z</time>
      </trkpt>
      <trkpt lat="42.90032" lon="3.03472">
        <ele>17</ele>
        <time>2022-09-30T09:13:59Z</time>
      </trkpt>
      <trkpt lat="42.9003" lon="3.03467">
        <ele>17</ele>
        <time>2022-09-30T09:14:10Z</time>
      </trkpt>
      <trkpt lat="42.90031" lon="3.03462">
        <ele>17</ele>
        <time>2022-09-30T09:14:16Z</time>
      </trkpt>
      <trkpt lat="42.90031" lon="3.03461">
        <ele>17</ele>
        <time>2022-09-30T09:14:18Z</time>
      </trkpt>
      <trkpt lat="42.90029" lon="3.03461">
        <ele>18</ele>
        <time>2022-09-30T09:14:22Z</time>
      </trkpt>
      <trkpt lat="42.90027" lon="3.03459">
        <ele>18</ele>
        <time>2022-09-30T09:14:24Z</time>
      </trkpt>
      <trkpt lat="42.90025" lon="3.03458">
        <ele>18</ele>
        <time>2022-09-30T09:14:26Z</time>
      </trkpt>
      <trkpt lat="42.90023" lon="3.03458">
        <ele>18</ele>
        <time>2022-09-30T09:14:28Z</time>
      </trkpt>
      <trkpt lat="42.90022" lon="3.03456">
        <ele>18</ele>
        <time>2022-09-30T09:14:31Z</time>
      </trkpt>
      <trkpt lat="42.90021" lon="3.03455">
        <ele>18</ele>
        <time>2022-09-30T09:14:33Z</time>
      </trkpt>
      <trkpt lat="42.9002" lon="3.03453">
        <ele>18</ele>
        <time>2022-09-30T09:14:36Z</time>
      </trkpt>
      <trkpt lat="42.90018" lon="3.03453">
        <ele>18</ele>
        <time>2022-09-30T09:14:38Z</time>
      </trkpt>
      <trkpt lat="42.90014" lon="3.03449">
        <ele>18</ele>
        <time>2022-09-30T09:14:45Z</time>
      </trkpt>
      <trkpt lat="42.90011" lon="3.03443">
        <ele>18</ele>
        <time>2022-09-30T09:14:51Z</time>
      </trkpt>
      <trkpt lat="42.90016" lon="3.03441">
        <ele>18</ele>
        <time>2022-09-30T09:16:03Z</time>
      </trkpt>
      <trkpt lat="42.90017" lon="3.03444">
        <ele>18</ele>
        <time>2022-09-30T09:16:06Z</time>
      </trkpt>
      <trkpt lat="42.90018" lon="3.03446">
        <ele>18</ele>
        <time>2022-09-30T09:16:09Z</time>
      </trkpt>
      <trkpt lat="42.9002" lon="3.03446">
        <ele>19</ele>
        <time>2022-09-30T09:16:14Z</time>
      </trkpt>
      <trkpt lat="42.90018" lon="3.03448">
        <ele>19</ele>
        <time>2022-09-30T09:16:38Z</time>
      </trkpt>
      <trkpt lat="42.90018" lon="3.03453">
        <ele>19</ele>
        <time>2022-09-30T09:16:48Z</time>
      </trkpt>
      <trkpt lat="42.9002" lon="3.03452">
        <ele>19</ele>
        <time>2022-09-30T09:16:51Z</time>
      </trkpt>
      <trkpt lat="42.90022" lon="3.03453">
        <ele>19</ele>
        <time>2022-09-30T09:16:56Z</time>
      </trkpt>
      <trkpt lat="42.90024" lon="3.03455">
        <ele>19</ele>
        <time>2022-09-30T09:16:59Z</time>
      </trkpt>
      <trkpt lat="42.90026" lon="3.03454">
        <ele>19</ele>
        <time>2022-09-30T09:17:01Z</time>
      </trkpt>
      <trkpt lat="42.90028" lon="3.03455">
        <ele>19</ele>
        <time>2022-09-30T09:17:03Z</time>
      </trkpt>
      <trkpt lat="42.9003" lon="3.03457">
        <ele>19</ele>
        <time>2022-09-30T09:17:06Z</time>
      </trkpt>
      <trkpt lat="42.9003" lon="3.0346">
        <ele>19</ele>
        <time>2022-09-30T09:17:09Z</time>
      </trkpt>
      <trkpt lat="42.90033" lon="3.03466">
        <ele>19</ele>
        <time>2022-09-30T09:17:15Z</time>
      </trkpt>
      <trkpt lat="42.90033" lon="3.03469">
        <ele>19</ele>
        <time>2022-09-30T09:17:17Z</time>
      </trkpt>
      <trkpt lat="42.90035" lon="3.0347">
        <ele>19</ele>
        <time>2022-09-30T09:17:21Z</time>
      </trkpt>
      <trkpt lat="42.90044" lon="3.03485">
        <ele>19</ele>
        <time>2022-09-30T09:17:40Z</time>
      </trkpt>
      <trkpt lat="42.90047" lon="3.03489">
        <ele>20</ele>
        <time>2022-09-30T09:17:46Z</time>
      </trkpt>
      <trkpt lat="42.90051" lon="3.0349">
        <ele>20</ele>
        <time>2022-09-30T09:17:51Z</time>
      </trkpt>
      <trkpt lat="42.90059" lon="3.0349">
        <ele>20</ele>
        <time>2022-09-30T09:18:00Z</time>
      </trkpt>
      <trkpt lat="42.90065" lon="3.03486">
        <ele>20</ele>
        <time>2022-09-30T09:18:08Z</time>
      </trkpt>
      <trkpt lat="42.90066" lon="3.03484">
        <ele>20</ele>
        <time>2022-09-30T09:18:11Z</time>
      </trkpt>
      <trkpt lat="42.90069" lon="3.03481">
        <ele>20</ele>
        <time>2022-09-30T09:18:15Z</time>
      </trkpt>
      <trkpt lat="42.90071" lon="3.03477">
        <ele>20</ele>
        <time>2022-09-30T09:18:19Z</time>
      </trkpt>
      <trkpt lat="42.90071" lon="3.03474">
        <ele>20</ele>
        <time>2022-09-30T09:18:21Z</time>
      </trkpt>
      <trkpt lat="42.9007" lon="3.03471">
        <ele>20</ele>
        <time>2022-09-30T09:18:24Z</time>
      </trkpt>
      <trkpt lat="42.90069" lon="3.0347">
        <ele>20</ele>
        <time>2022-09-30T09:18:27Z</time>
      </trkpt>
      <trkpt lat="42.90068" lon="3.03469">
        <ele>20</ele>
        <time>2022-09-30T09:18:30Z</time>
      </trkpt>
      <trkpt lat="42.90066" lon="3.03469">
        <ele>20</ele>
        <time>2022-09-30T09:18:33Z</time>
      </trkpt>
      <trkpt lat="42.90067" lon="3.03465">
        <ele>20</ele>
        <time>2022-09-30T09:19:41Z</time>
      </trkpt>
      <trkpt lat="42.90065" lon="3.03462">
        <ele>20</ele>
        <time>2022-09-30T09:19:46Z</time>
      </trkpt>
      <trkpt lat="42.90062" lon="3.03451">
        <ele>20</ele>
        <time>2022-09-30T09:19:59Z</time>
      </trkpt>
      <trkpt lat="42.90062" lon="3.03449">
        <ele>20</ele>
        <time>2022-09-30T09:20:01Z</time>
      </trkpt>
      <trkpt lat="42.90062" lon="3.03447">
        <ele>20</ele>
        <time>2022-09-30T09:20:03Z</time>
      </trkpt>
      <trkpt lat="42.90063" lon="3.03433">
        <ele>20</ele>
        <time>2022-09-30T09:20:13Z</time>
      </trkpt>
      <trkpt lat="42.90064" lon="3.03424">
        <ele>20</ele>
        <time>2022-09-30T09:20:19Z</time>
      </trkpt>
      <trkpt lat="42.90065" lon="3.03421">
        <ele>20</ele>
        <time>2022-09-30T09:20:21Z</time>
      </trkpt>
      <trkpt lat="42.90064" lon="3.0341">
        <ele>20</ele>
        <time>2022-09-30T09:20:29Z</time>
      </trkpt>
      <trkpt lat="42.90062" lon="3.03407">
        <ele>20</ele>
        <time>2022-09-30T09:20:32Z</time>
      </trkpt>
      <trkpt lat="42.90058" lon="3.0339">
        <ele>20</ele>
        <time>2022-09-30T09:20:48Z</time>
      </trkpt>
      <trkpt lat="42.90059" lon="3.03383">
        <ele>20</ele>
        <time>2022-09-30T09:20:54Z</time>
      </trkpt>
      <trkpt lat="42.9006" lon="3.0338">
        <ele>20</ele>
        <time>2022-09-30T09:20:56Z</time>
      </trkpt>
      <trkpt lat="42.90063" lon="3.03372">
        <ele>20</ele>
        <time>2022-09-30T09:21:02Z</time>
      </trkpt>
      <trkpt lat="42.90066" lon="3.03371">
        <ele>20</ele>
        <time>2022-09-30T09:21:05Z</time>
      </trkpt>
      <trkpt lat="42.90068" lon="3.03368">
        <ele>20</ele>
        <time>2022-09-30T09:21:07Z</time>
      </trkpt>
      <trkpt lat="42.9007" lon="3.03367">
        <ele>20</ele>
        <time>2022-09-30T09:21:09Z</time>
      </trkpt>
      <trkpt lat="42.9007" lon="3.03367">
        <ele>21</ele>
        <time>2022-09-30T09:21:23Z</time>
      </trkpt>
      <trkpt lat="42.90067" lon="3.03369">
        <ele>21</ele>
        <time>2022-09-30T09:21:26Z</time>
      </trkpt>
      <trkpt lat="42.90062" lon="3.03368">
        <ele>21</ele>
        <time>2022-09-30T09:21:32Z</time>
      </trkpt>
      <trkpt lat="42.90059" lon="3.03371">
        <ele>21</ele>
        <time>2022-09-30T09:21:39Z</time>
      </trkpt>
      <trkpt lat="42.90055" lon="3.03371">
        <ele>21</ele>
        <time>2022-09-30T09:21:43Z</time>
      </trkpt>
      <trkpt lat="42.90053" lon="3.0337">
        <ele>21</ele>
        <time>2022-09-30T09:21:45Z</time>
      </trkpt>
      <trkpt lat="42.90052" lon="3.0337">
        <ele>21</ele>
        <time>2022-09-30T09:21:47Z</time>
      </trkpt>
      <trkpt lat="42.90051" lon="3.0337">
        <ele>21</ele>
        <time>2022-09-30T09:21:49Z</time>
      </trkpt>
      <trkpt lat="42.90051" lon="3.03368">
        <ele>21</ele>
        <time>2022-09-30T09:21:55Z</time>
      </trkpt>
      <trkpt lat="42.9005" lon="3.03365">
        <ele>21</ele>
        <time>2022-09-30T09:22:00Z</time>
      </trkpt>
      <trkpt lat="42.90048" lon="3.03365">
        <ele>22</ele>
        <time>2022-09-30T09:22:02Z</time>
      </trkpt>
      <trkpt lat="42.90047" lon="3.03366">
        <ele>22</ele>
        <time>2022-09-30T09:22:04Z</time>
      </trkpt>
      <trkpt lat="42.90045" lon="3.03366">
        <ele>22</ele>
        <time>2022-09-30T09:22:05Z</time>
      </trkpt>
      <trkpt lat="42.90044" lon="3.03366">
        <ele>22</ele>
        <time>2022-09-30T09:22:06Z</time>
      </trkpt>
      <trkpt lat="42.90042" lon="3.03366">
        <ele>22</ele>
        <time>2022-09-30T09:22:08Z</time>
      </trkpt>
      <trkpt lat="42.9004" lon="3.03368">
        <ele>22</ele>
        <time>2022-09-30T09:22:10Z</time>
      </trkpt>
      <trkpt lat="42.90039" lon="3.03369">
        <ele>22</ele>
        <time>2022-09-30T09:22:12Z</time>
      </trkpt>
      <trkpt lat="42.90037" lon="3.0337">
        <ele>22</ele>
        <time>2022-09-30T09:22:14Z</time>
      </trkpt>
      <trkpt lat="42.90032" lon="3.0337">
        <ele>22</ele>
        <time>2022-09-30T09:22:21Z</time>
      </trkpt>
      <trkpt lat="42.90028" lon="3.03372">
        <ele>22</ele>
        <time>2022-09-30T09:22:25Z</time>
      </trkpt>
      <trkpt lat="42.90027" lon="3.03374">
        <ele>22</ele>
        <time>2022-09-30T09:22:27Z</time>
      </trkpt>
      <trkpt lat="42.90023" lon="3.03377">
        <ele>21</ele>
        <time>2022-09-30T09:22:37Z</time>
      </trkpt>
      <trkpt lat="42.90022" lon="3.03377">
        <ele>21</ele>
        <time>2022-09-30T09:22:39Z</time>
      </trkpt>
      <trkpt lat="42.9002" lon="3.03378">
        <ele>21</ele>
        <time>2022-09-30T09:22:41Z</time>
      </trkpt>
      <trkpt lat="42.90018" lon="3.03379">
        <ele>21</ele>
        <time>2022-09-30T09:22:43Z</time>
      </trkpt>
      <trkpt lat="42.90013" lon="3.03383">
        <ele>21</ele>
        <time>2022-09-30T09:22:52Z</time>
      </trkpt>
      <trkpt lat="42.90003" lon="3.0339">
        <ele>21</ele>
        <time>2022-09-30T09:23:02Z</time>
      </trkpt>
      <trkpt lat="42.90001" lon="3.0339">
        <ele>21</ele>
        <time>2022-09-30T09:23:04Z</time>
      </trkpt>
      <trkpt lat="42.89998" lon="3.03392">
        <ele>21</ele>
        <time>2022-09-30T09:23:09Z</time>
      </trkpt>
      <trkpt lat="42.89996" lon="3.03394">
        <ele>21</ele>
        <time>2022-09-30T09:23:12Z</time>
      </trkpt>
      <trkpt lat="42.89995" lon="3.03398">
        <ele>20</ele>
        <time>2022-09-30T09:23:17Z</time>
      </trkpt>
      <trkpt lat="42.89994" lon="3.03405">
        <ele>20</ele>
        <time>2022-09-30T09:23:23Z</time>
      </trkpt>
      <trkpt lat="42.89995" lon="3.0341">
        <ele>20</ele>
        <time>2022-09-30T09:23:27Z</time>
      </trkpt>
      <trkpt lat="42.89995" lon="3.03412">
        <ele>20</ele>
        <time>2022-09-30T09:23:31Z</time>
      </trkpt>
      <trkpt lat="42.89991" lon="3.03416">
        <ele>20</ele>
        <time>2022-09-30T09:23:40Z</time>
      </trkpt>
      <trkpt lat="42.89988" lon="3.03415">
        <ele>20</ele>
        <time>2022-09-30T09:23:42Z</time>
      </trkpt>
      <trkpt lat="42.89985" lon="3.03417">
        <ele>20</ele>
        <time>2022-09-30T09:23:47Z</time>
      </trkpt>
      <trkpt lat="42.89983" lon="3.03417">
        <ele>20</ele>
        <time>2022-09-30T09:23:49Z</time>
      </trkpt>
      <trkpt lat="42.89976" lon="3.03413">
        <ele>20</ele>
        <time>2022-09-30T09:23:59Z</time>
      </trkpt>
      <trkpt lat="42.89966" lon="3.03412">
        <ele>20</ele>
        <time>2022-09-30T09:24:09Z</time>
      </trkpt>
      <trkpt lat="42.89964" lon="3.03412">
        <ele>20</ele>
        <time>2022-09-30T09:24:11Z</time>
      </trkpt>
      <trkpt lat="42.89963" lon="3.0341">
        <ele>20</ele>
        <time>2022-09-30T09:24:14Z</time>
      </trkpt>
      <trkpt lat="42.89962" lon="3.03409">
        <ele>20</ele>
        <time>2022-09-30T09:24:19Z</time>
      </trkpt>
      <trkpt lat="42.89961" lon="3.03408">
        <ele>20</ele>
        <time>2022-09-30T09:24:21Z</time>
      </trkpt>
      <trkpt lat="42.89959" lon="3.03408">
        <ele>20</ele>
        <time>2022-09-30T09:24:23Z</time>
      </trkpt>
      <trkpt lat="42.89957" lon="3.03409">
        <ele>20</ele>
        <time>2022-09-30T09:24:25Z</time>
      </trkpt>
      <trkpt lat="42.89954" lon="3.03408">
        <ele>20</ele>
        <time>2022-09-30T09:24:27Z</time>
      </trkpt>
      <trkpt lat="42.89953" lon="3.03405">
        <ele>20</ele>
        <time>2022-09-30T09:24:29Z</time>
      </trkpt>
      <trkpt lat="42.89952" lon="3.03403">
        <ele>20</ele>
        <time>2022-09-30T09:24:31Z</time>
      </trkpt>
      <trkpt lat="42.89952" lon="3.03399">
        <ele>20</ele>
        <time>2022-09-30T09:24:35Z</time>
      </trkpt>
      <trkpt lat="42.89952" lon="3.03396">
        <ele>20</ele>
        <time>2022-09-30T09:24:37Z</time>
      </trkpt>
      <trkpt lat="42.89952" lon="3.03393">
        <ele>20</ele>
        <time>2022-09-30T09:24:40Z</time>
      </trkpt>
      <trkpt lat="42.89952" lon="3.03392">
        <ele>19</ele>
        <time>2022-09-30T09:24:46Z</time>
      </trkpt>
      <trkpt lat="42.89951" lon="3.03389">
        <ele>19</ele>
        <time>2022-09-30T09:24:48Z</time>
      </trkpt>
      <trkpt lat="42.89951" lon="3.03387">
        <ele>19</ele>
        <time>2022-09-30T09:24:50Z</time>
      </trkpt>
      <trkpt lat="42.89951" lon="3.03384">
        <ele>19</ele>
        <time>2022-09-30T09:24:52Z</time>
      </trkpt>
      <trkpt lat="42.89952" lon="3.03378">
        <ele>19</ele>
        <time>2022-09-30T09:24:57Z</time>
      </trkpt>
      <trkpt lat="42.89951" lon="3.03375">
        <ele>19</ele>
        <time>2022-09-30T09:25:00Z</time>
      </trkpt>
      <trkpt lat="42.89951" lon="3.0337">
        <ele>19</ele>
        <time>2022-09-30T09:25:05Z</time>
      </trkpt>
      <trkpt lat="42.89951" lon="3.03367">
        <ele>19</ele>
        <time>2022-09-30T09:25:07Z</time>
      </trkpt>
      <trkpt lat="42.89953" lon="3.03362">
        <ele>19</ele>
        <time>2022-09-30T09:25:12Z</time>
      </trkpt>
      <trkpt lat="42.89952" lon="3.03359">
        <ele>19</ele>
        <time>2022-09-30T09:25:14Z</time>
      </trkpt>
      <trkpt lat="42.89955" lon="3.03351">
        <ele>19</ele>
        <time>2022-09-30T09:25:21Z</time>
      </trkpt>
      <trkpt lat="42.89955" lon="3.03348">
        <ele>19</ele>
        <time>2022-09-30T09:25:24Z</time>
      </trkpt>
      <trkpt lat="42.89958" lon="3.03342">
        <ele>19</ele>
        <time>2022-09-30T09:25:31Z</time>
      </trkpt>
      <trkpt lat="42.89966" lon="3.03318">
        <ele>18</ele>
        <time>2022-09-30T09:25:57Z</time>
      </trkpt>
      <trkpt lat="42.89966" lon="3.03316">
        <ele>18</ele>
        <time>2022-09-30T09:25:59Z</time>
      </trkpt>
      <trkpt lat="42.89969" lon="3.0331">
        <ele>18</ele>
        <time>2022-09-30T09:26:07Z</time>
      </trkpt>
      <trkpt lat="42.89972" lon="3.03303">
        <ele>18</ele>
        <time>2022-09-30T09:26:13Z</time>
      </trkpt>
      <trkpt lat="42.89972" lon="3.03301">
        <ele>18</ele>
        <time>2022-09-30T09:26:15Z</time>
      </trkpt>
      <trkpt lat="42.89973" lon="3.03299">
        <ele>18</ele>
        <time>2022-09-30T09:26:16Z</time>
      </trkpt>
      <trkpt lat="42.89973" lon="3.03297">
        <ele>17</ele>
        <time>2022-09-30T09:26:18Z</time>
      </trkpt>
      <trkpt lat="42.89975" lon="3.03293">
        <ele>17</ele>
        <time>2022-09-30T09:26:24Z</time>
      </trkpt>
      <trkpt lat="42.89976" lon="3.03291">
        <ele>17</ele>
        <time>2022-09-30T09:26:26Z</time>
      </trkpt>
      <trkpt lat="42.89979" lon="3.03288">
        <ele>17</ele>
        <time>2022-09-30T09:26:31Z</time>
      </trkpt>
      <trkpt lat="42.8998" lon="3.03287">
        <ele>17</ele>
        <time>2022-09-30T09:26:32Z</time>
      </trkpt>
      <trkpt lat="42.89981" lon="3.03285">
        <ele>17</ele>
        <time>2022-09-30T09:26:34Z</time>
      </trkpt>
      <trkpt lat="42.89992" lon="3.03276">
        <ele>17</ele>
        <time>2022-09-30T09:26:50Z</time>
      </trkpt>
      <trkpt lat="42.89993" lon="3.03275">
        <ele>17</ele>
        <time>2022-09-30T09:26:53Z</time>
      </trkpt>
      <trkpt lat="42.89994" lon="3.03273">
        <ele>17</ele>
        <time>2022-09-30T09:26:55Z</time>
      </trkpt>
      <trkpt lat="42.90001" lon="3.03269">
        <ele>17</ele>
        <time>2022-09-30T09:27:03Z</time>
      </trkpt>
      <trkpt lat="42.90002" lon="3.03268">
        <ele>17</ele>
        <time>2022-09-30T09:27:05Z</time>
      </trkpt>
      <trkpt lat="42.90004" lon="3.03267">
        <ele>17</ele>
        <time>2022-09-30T09:27:07Z</time>
      </trkpt>
      <trkpt lat="42.9001" lon="3.03261">
        <ele>17</ele>
        <time>2022-09-30T09:27:16Z</time>
      </trkpt>
      <trkpt lat="42.90013" lon="3.0326">
        <ele>17</ele>
        <time>2022-09-30T09:27:20Z</time>
      </trkpt>
      <trkpt lat="42.90024" lon="3.03245">
        <ele>17</ele>
        <time>2022-09-30T09:27:38Z</time>
      </trkpt>
      <trkpt lat="42.90025" lon="3.03245">
        <ele>17</ele>
        <time>2022-09-30T09:27:40Z</time>
      </trkpt>
      <trkpt lat="42.90027" lon="3.03246">
        <ele>17</ele>
        <time>2022-09-30T09:27:48Z</time>
      </trkpt>
      <trkpt lat="42.90028" lon="3.03245">
        <ele>17</ele>
        <time>2022-09-30T09:27:50Z</time>
      </trkpt>
      <trkpt lat="42.90033" lon="3.03243">
        <ele>17</ele>
        <time>2022-09-30T09:27:54Z</time>
      </trkpt>
      <trkpt lat="42.90034" lon="3.03244">
        <ele>17</ele>
        <time>2022-09-30T09:27:57Z</time>
      </trkpt>
      <trkpt lat="42.90033" lon="3.03245">
        <ele>18</ele>
        <time>2022-09-30T09:28:01Z</time>
      </trkpt>
      <trkpt lat="42.90033" lon="3.03248">
        <ele>19</ele>
        <time>2022-09-30T09:29:14Z</time>
      </trkpt>
      <trkpt lat="42.90037" lon="3.03246">
        <ele>19</ele>
        <time>2022-09-30T09:29:21Z</time>
      </trkpt>
      <trkpt lat="42.90041" lon="3.03247">
        <ele>19</ele>
        <time>2022-09-30T09:29:26Z</time>
      </trkpt>
      <trkpt lat="42.90042" lon="3.03246">
        <ele>19</ele>
        <time>2022-09-30T09:29:29Z</time>
      </trkpt>
      <trkpt lat="42.90045" lon="3.03246">
        <ele>19</ele>
        <time>2022-09-30T09:29:33Z</time>
      </trkpt>
      <trkpt lat="42.90048" lon="3.03247">
        <ele>19</ele>
        <time>2022-09-30T09:29:35Z</time>
      </trkpt>
      <trkpt lat="42.90052" lon="3.03247">
        <ele>19</ele>
        <time>2022-09-30T09:29:39Z</time>
      </trkpt>
      <trkpt lat="42.90062" lon="3.03245">
        <ele>19</ele>
        <time>2022-09-30T09:29:48Z</time>
      </trkpt>
      <trkpt lat="42.90065" lon="3.03246">
        <ele>19</ele>
        <time>2022-09-30T09:29:50Z</time>
      </trkpt>
      <trkpt lat="42.90066" lon="3.03247">
        <ele>19</ele>
        <time>2022-09-30T09:29:53Z</time>
      </trkpt>
      <trkpt lat="42.90074" lon="3.03247">
        <ele>19</ele>
        <time>2022-09-30T09:30:02Z</time>
      </trkpt>
      <trkpt lat="42.90076" lon="3.03247">
        <ele>19</ele>
        <time>2022-09-30T09:30:05Z</time>
      </trkpt>
      <trkpt lat="42.90078" lon="3.03248">
        <ele>19</ele>
        <time>2022-09-30T09:30:07Z</time>
      </trkpt>
      <trkpt lat="42.9008" lon="3.03247">
        <ele>19</ele>
        <time>2022-09-30T09:30:09Z</time>
      </trkpt>
      <trkpt lat="42.90081" lon="3.03247">
        <ele>19</ele>
        <time>2022-09-30T09:30:11Z</time>
      </trkpt>
      <trkpt lat="42.90084" lon="3.03247">
        <ele>19</ele>
        <time>2022-09-30T09:30:13Z</time>
      </trkpt>
      <trkpt lat="42.90088" lon="3.03248">
        <ele>20</ele>
        <time>2022-09-30T09:30:18Z</time>
      </trkpt>
      <trkpt lat="42.9009" lon="3.03249">
        <ele>20</ele>
        <time>2022-09-30T09:30:22Z</time>
      </trkpt>
      <trkpt lat="42.90091" lon="3.03248">
        <ele>20</ele>
        <time>2022-09-30T09:30:24Z</time>
      </trkpt>
      <trkpt lat="42.90093" lon="3.03247">
        <ele>20</ele>
        <time>2022-09-30T09:30:26Z</time>
      </trkpt>
      <trkpt lat="42.90095" lon="3.03245">
        <ele>20</ele>
        <time>2022-09-30T09:30:29Z</time>
      </trkpt>
      <trkpt lat="42.90103" lon="3.03242">
        <ele>20</ele>
        <time>2022-09-30T09:30:37Z</time>
      </trkpt>
      <trkpt lat="42.90105" lon="3.03241">
        <ele>20</ele>
        <time>2022-09-30T09:30:39Z</time>
      </trkpt>
      <trkpt lat="42.90108" lon="3.03238">
        <ele>20</ele>
        <time>2022-09-30T09:30:44Z</time>
      </trkpt>
      <trkpt lat="42.90109" lon="3.03237">
        <ele>20</ele>
        <time>2022-09-30T09:30:46Z</time>
      </trkpt>
      <trkpt lat="42.90114" lon="3.03232">
        <ele>20</ele>
        <time>2022-09-30T09:30:52Z</time>
      </trkpt>
      <trkpt lat="42.90117" lon="3.03228">
        <ele>20</ele>
        <time>2022-09-30T09:30:56Z</time>
      </trkpt>
      <trkpt lat="42.90118" lon="3.03226">
        <ele>21</ele>
        <time>2022-09-30T09:30:58Z</time>
      </trkpt>
      <trkpt lat="42.90119" lon="3.03225">
        <ele>21</ele>
        <time>2022-09-30T09:31:01Z</time>
      </trkpt>
      <trkpt lat="42.90125" lon="3.03219">
        <ele>21</ele>
        <time>2022-09-30T09:31:08Z</time>
      </trkpt>
      <trkpt lat="42.90126" lon="3.03217">
        <ele>21</ele>
        <time>2022-09-30T09:31:10Z</time>
      </trkpt>
      <trkpt lat="42.90129" lon="3.03213">
        <ele>21</ele>
        <time>2022-09-30T09:31:15Z</time>
      </trkpt>
      <trkpt lat="42.90136" lon="3.03201">
        <ele>21</ele>
        <time>2022-09-30T09:31:26Z</time>
      </trkpt>
      <trkpt lat="42.90137" lon="3.032">
        <ele>21</ele>
        <time>2022-09-30T09:31:28Z</time>
      </trkpt>
      <trkpt lat="42.90141" lon="3.03196">
        <ele>21</ele>
        <time>2022-09-30T09:31:32Z</time>
      </trkpt>
      <trkpt lat="42.90144" lon="3.03192">
        <ele>21</ele>
        <time>2022-09-30T09:31:36Z</time>
      </trkpt>
      <trkpt lat="42.90146" lon="3.03191">
        <ele>21</ele>
        <time>2022-09-30T09:31:38Z</time>
      </trkpt>
      <trkpt lat="42.90148" lon="3.03189">
        <ele>21</ele>
        <time>2022-09-30T09:31:41Z</time>
      </trkpt>
      <trkpt lat="42.90149" lon="3.03189">
        <ele>21</ele>
        <time>2022-09-30T09:31:42Z</time>
      </trkpt>
      <trkpt lat="42.90151" lon="3.03187">
        <ele>21</ele>
        <time>2022-09-30T09:31:44Z</time>
      </trkpt>
      <trkpt lat="42.90153" lon="3.03185">
        <ele>21</ele>
        <time>2022-09-30T09:31:47Z</time>
      </trkpt>
      <trkpt lat="42.90163" lon="3.03183">
        <ele>21</ele>
        <time>2022-09-30T09:31:55Z</time>
      </trkpt>
      <trkpt lat="42.90165" lon="3.03182">
        <ele>21</ele>
        <time>2022-09-30T09:31:58Z</time>
      </trkpt>
      <trkpt lat="42.90166" lon="3.0318">
        <ele>21</ele>
        <time>2022-09-30T09:32:00Z</time>
      </trkpt>
      <trkpt lat="42.9017" lon="3.03178">
        <ele>21</ele>
        <time>2022-09-30T09:32:05Z</time>
      </trkpt>
      <trkpt lat="42.90176" lon="3.03175">
        <ele>21</ele>
        <time>2022-09-30T09:32:11Z</time>
      </trkpt>
      <trkpt lat="42.90178" lon="3.03175">
        <ele>21</ele>
        <time>2022-09-30T09:32:13Z</time>
      </trkpt>
      <trkpt lat="42.90184" lon="3.03173">
        <ele>21</ele>
        <time>2022-09-30T09:32:19Z</time>
      </trkpt>
      <trkpt lat="42.90185" lon="3.03173">
        <ele>21</ele>
        <time>2022-09-30T09:32:21Z</time>
      </trkpt>
      <trkpt lat="42.90191" lon="3.03167">
        <ele>21</ele>
        <time>2022-09-30T09:32:28Z</time>
      </trkpt>
      <trkpt lat="42.90191" lon="3.03161">
        <ele>21</ele>
        <time>2022-09-30T09:32:34Z</time>
      </trkpt>
      <trkpt lat="42.90191" lon="3.03158">
        <ele>21</ele>
        <time>2022-09-30T09:32:36Z</time>
      </trkpt>
      <trkpt lat="42.9019" lon="3.03156">
        <ele>21</ele>
        <time>2022-09-30T09:32:39Z</time>
      </trkpt>
      <trkpt lat="42.9019" lon="3.03154">
        <ele>21</ele>
        <time>2022-09-30T09:32:43Z</time>
      </trkpt>
      <trkpt lat="42.90188" lon="3.03154">
        <ele>21</ele>
        <time>2022-09-30T09:32:47Z</time>
      </trkpt>
      <trkpt lat="42.90187" lon="3.03154">
        <ele>21</ele>
        <time>2022-09-30T09:32:50Z</time>
      </trkpt>
      <trkpt lat="42.90164" lon="3.03145">
        <ele>20</ele>
        <time>2022-09-30T09:33:15Z</time>
      </trkpt>
      <trkpt lat="42.90161" lon="3.03145">
        <ele>20</ele>
        <time>2022-09-30T09:33:17Z</time>
      </trkpt>
      <trkpt lat="42.90157" lon="3.03141">
        <ele>20</ele>
        <time>2022-09-30T09:33:23Z</time>
      </trkpt>
      <trkpt lat="42.90155" lon="3.0314">
        <ele>20</ele>
        <time>2022-09-30T09:33:25Z</time>
      </trkpt>
      <trkpt lat="42.90147" lon="3.03135">
        <ele>20</ele>
        <time>2022-09-30T09:33:33Z</time>
      </trkpt>
      <trkpt lat="42.90142" lon="3.03131">
        <ele>20</ele>
        <time>2022-09-30T09:33:39Z</time>
      </trkpt>
      <trkpt lat="42.90137" lon="3.03129">
        <ele>20</ele>
        <time>2022-09-30T09:33:45Z</time>
      </trkpt>
      <trkpt lat="42.90135" lon="3.03127">
        <ele>20</ele>
        <time>2022-09-30T09:33:47Z</time>
      </trkpt>
      <trkpt lat="42.90133" lon="3.03126">
        <ele>19</ele>
        <time>2022-09-30T09:33:49Z</time>
      </trkpt>
      <trkpt lat="42.90132" lon="3.03125">
        <ele>19</ele>
        <time>2022-09-30T09:33:51Z</time>
      </trkpt>
      <trkpt lat="42.9013" lon="3.03122">
        <ele>19</ele>
        <time>2022-09-30T09:33:54Z</time>
      </trkpt>
      <trkpt lat="42.90121" lon="3.03117">
        <ele>19</ele>
        <time>2022-09-30T09:34:04Z</time>
      </trkpt>
      <trkpt lat="42.90119" lon="3.03116">
        <ele>19</ele>
        <time>2022-09-30T09:34:06Z</time>
      </trkpt>
      <trkpt lat="42.90116" lon="3.03113">
        <ele>19</ele>
        <time>2022-09-30T09:34:10Z</time>
      </trkpt>
      <trkpt lat="42.90113" lon="3.03113">
        <ele>19</ele>
        <time>2022-09-30T09:34:12Z</time>
      </trkpt>
      <trkpt lat="42.90107" lon="3.0311">
        <ele>19</ele>
        <time>2022-09-30T09:34:18Z</time>
      </trkpt>
      <trkpt lat="42.90104" lon="3.03107">
        <ele>19</ele>
        <time>2022-09-30T09:34:21Z</time>
      </trkpt>
      <trkpt lat="42.90091" lon="3.03099">
        <ele>18</ele>
        <time>2022-09-30T09:34:37Z</time>
      </trkpt>
      <trkpt lat="42.90091" lon="3.03096">
        <ele>18</ele>
        <time>2022-09-30T09:34:39Z</time>
      </trkpt>
      <trkpt lat="42.90092" lon="3.03094">
        <ele>18</ele>
        <time>2022-09-30T09:34:42Z</time>
      </trkpt>
      <trkpt lat="42.90093" lon="3.03093">
        <ele>18</ele>
        <time>2022-09-30T09:34:44Z</time>
      </trkpt>
      <trkpt lat="42.90106" lon="3.03093">
        <ele>17</ele>
        <time>2022-09-30T09:34:57Z</time>
      </trkpt>
      <trkpt lat="42.90107" lon="3.03094">
        <ele>17</ele>
        <time>2022-09-30T09:34:58Z</time>
      </trkpt>
      <trkpt lat="42.90111" lon="3.03095">
        <ele>17</ele>
        <time>2022-09-30T09:35:02Z</time>
      </trkpt>
      <trkpt lat="42.90116" lon="3.03096">
        <ele>17</ele>
        <time>2022-09-30T09:35:06Z</time>
      </trkpt>
      <trkpt lat="42.90118" lon="3.03097">
        <ele>17</ele>
        <time>2022-09-30T09:35:08Z</time>
      </trkpt>
      <trkpt lat="42.90119" lon="3.03099">
        <ele>17</ele>
        <time>2022-09-30T09:35:10Z</time>
      </trkpt>
      <trkpt lat="42.90126" lon="3.03103">
        <ele>16</ele>
        <time>2022-09-30T09:35:16Z</time>
      </trkpt>
      <trkpt lat="42.90127" lon="3.03105">
        <ele>16</ele>
        <time>2022-09-30T09:35:18Z</time>
      </trkpt>
      <trkpt lat="42.9014" lon="3.03114">
        <ele>16</ele>
        <time>2022-09-30T09:35:36Z</time>
      </trkpt>
      <trkpt lat="42.90144" lon="3.03114">
        <ele>16</ele>
        <time>2022-09-30T09:35:40Z</time>
      </trkpt>
      <trkpt lat="42.90154" lon="3.03118">
        <ele>16</ele>
        <time>2022-09-30T09:35:50Z</time>
      </trkpt>
      <trkpt lat="42.90161" lon="3.03122">
        <ele>16</ele>
        <time>2022-09-30T09:35:56Z</time>
      </trkpt>
      <trkpt lat="42.90163" lon="3.03122">
        <ele>16</ele>
        <time>2022-09-30T09:35:58Z</time>
      </trkpt>
      <trkpt lat="42.90165" lon="3.03123">
        <ele>16</ele>
        <time>2022-09-30T09:36:00Z</time>
      </trkpt>
      <trkpt lat="42.90167" lon="3.03125">
        <ele>16</ele>
        <time>2022-09-30T09:36:02Z</time>
      </trkpt>
      <trkpt lat="42.90177" lon="3.0313">
        <ele>15</ele>
        <time>2022-09-30T09:36:11Z</time>
      </trkpt>
      <trkpt lat="42.90179" lon="3.03131">
        <ele>15</ele>
        <time>2022-09-30T09:36:13Z</time>
      </trkpt>
      <trkpt lat="42.9018" lon="3.03132">
        <ele>15</ele>
        <time>2022-09-30T09:36:15Z</time>
      </trkpt>
      <trkpt lat="42.90182" lon="3.03134">
        <ele>15</ele>
        <time>2022-09-30T09:36:17Z</time>
      </trkpt>
      <trkpt lat="42.90184" lon="3.03136">
        <ele>15</ele>
        <time>2022-09-30T09:36:19Z</time>
      </trkpt>
      <trkpt lat="42.90186" lon="3.03137">
        <ele>15</ele>
        <time>2022-09-30T09:36:21Z</time>
      </trkpt>
      <trkpt lat="42.90191" lon="3.03139">
        <ele>15</ele>
        <time>2022-09-30T09:36:27Z</time>
      </trkpt>
      <trkpt lat="42.90193" lon="3.03141">
        <ele>15</ele>
        <time>2022-09-30T09:36:29Z</time>
      </trkpt>
      <trkpt lat="42.90196" lon="3.03142">
        <ele>15</ele>
        <time>2022-09-30T09:36:33Z</time>
      </trkpt>
      <trkpt lat="42.90198" lon="3.03144">
        <ele>15</ele>
        <time>2022-09-30T09:36:35Z</time>
      </trkpt>
      <trkpt lat="42.90204" lon="3.03145">
        <ele>15</ele>
        <time>2022-09-30T09:36:40Z</time>
      </trkpt>
      <trkpt lat="42.90205" lon="3.03146">
        <ele>15</ele>
        <time>2022-09-30T09:36:42Z</time>
      </trkpt>
      <trkpt lat="42.90206" lon="3.03148">
        <ele>15</ele>
        <time>2022-09-30T09:36:47Z</time>
      </trkpt>
      <trkpt lat="42.90208" lon="3.03147">
        <ele>15</ele>
        <time>2022-09-30T09:36:50Z</time>
      </trkpt>
      <trkpt lat="42.9021" lon="3.03147">
        <ele>14</ele>
        <time>2022-09-30T09:36:53Z</time>
      </trkpt>
      <trkpt lat="42.90228" lon="3.0314">
        <ele>14</ele>
        <time>2022-09-30T09:37:09Z</time>
      </trkpt>
      <trkpt lat="42.90229" lon="3.03134">
        <ele>14</ele>
        <time>2022-09-30T09:37:12Z</time>
      </trkpt>
      <trkpt lat="42.90241" lon="3.03122">
        <ele>14</ele>
        <time>2022-09-30T09:37:27Z</time>
      </trkpt>
      <trkpt lat="42.90243" lon="3.03121">
        <ele>14</ele>
        <time>2022-09-30T09:37:29Z</time>
      </trkpt>
      <trkpt lat="42.90245" lon="3.0312">
        <ele>14</ele>
        <time>2022-09-30T09:37:30Z</time>
      </trkpt>
      <trkpt lat="42.90247" lon="3.03119">
        <ele>14</ele>
        <time>2022-09-30T09:37:32Z</time>
      </trkpt>
      <trkpt lat="42.90248" lon="3.03118">
        <ele>13</ele>
        <time>2022-09-30T09:37:34Z</time>
      </trkpt>
      <trkpt lat="42.9025" lon="3.03117">
        <ele>13</ele>
        <time>2022-09-30T09:37:36Z</time>
      </trkpt>
      <trkpt lat="42.90254" lon="3.03116">
        <ele>13</ele>
        <time>2022-09-30T09:37:39Z</time>
      </trkpt>
      <trkpt lat="42.9026" lon="3.03111">
        <ele>13</ele>
        <time>2022-09-30T09:37:47Z</time>
      </trkpt>
      <trkpt lat="42.90262" lon="3.0311">
        <ele>13</ele>
        <time>2022-09-30T09:37:49Z</time>
      </trkpt>
      <trkpt lat="42.90264" lon="3.03109">
        <ele>13</ele>
        <time>2022-09-30T09:37:51Z</time>
      </trkpt>
      <trkpt lat="42.9028" lon="3.03101">
        <ele>13</ele>
        <time>2022-09-30T09:38:06Z</time>
      </trkpt>
      <trkpt lat="42.90282" lon="3.031">
        <ele>13</ele>
        <time>2022-09-30T09:38:08Z</time>
      </trkpt>
      <trkpt lat="42.90284" lon="3.03099">
        <ele>13</ele>
        <time>2022-09-30T09:38:10Z</time>
      </trkpt>
      <trkpt lat="42.90286" lon="3.03098">
        <ele>13</ele>
        <time>2022-09-30T09:38:12Z</time>
      </trkpt>
      <trkpt lat="42.90288" lon="3.03097">
        <ele>13</ele>
        <time>2022-09-30T09:38:19Z</time>
      </trkpt>
      <trkpt lat="42.9029" lon="3.03097">
        <ele>13</ele>
        <time>2022-09-30T09:38:21Z</time>
      </trkpt>
      <trkpt lat="42.90293" lon="3.03096">
        <ele>13</ele>
        <time>2022-09-30T09:38:24Z</time>
      </trkpt>
      <trkpt lat="42.90298" lon="3.03093">
        <ele>13</ele>
        <time>2022-09-30T09:38:29Z</time>
      </trkpt>
      <trkpt lat="42.903" lon="3.03092">
        <ele>13</ele>
        <time>2022-09-30T09:38:31Z</time>
      </trkpt>
      <trkpt lat="42.90307" lon="3.03089">
        <ele>13</ele>
        <time>2022-09-30T09:38:39Z</time>
      </trkpt>
      <trkpt lat="42.90309" lon="3.03089">
        <ele>13</ele>
        <time>2022-09-30T09:38:41Z</time>
      </trkpt>
      <trkpt lat="42.9031" lon="3.03088">
        <ele>13</ele>
        <time>2022-09-30T09:38:44Z</time>
      </trkpt>
      <trkpt lat="42.90321" lon="3.03084">
        <ele>13</ele>
        <time>2022-09-30T09:38:55Z</time>
      </trkpt>
      <trkpt lat="42.90327" lon="3.03084">
        <ele>13</ele>
        <time>2022-09-30T09:39:01Z</time>
      </trkpt>
      <trkpt lat="42.90329" lon="3.03085">
        <ele>13</ele>
        <time>2022-09-30T09:39:03Z</time>
      </trkpt>
      <trkpt lat="42.90333" lon="3.03085">
        <ele>13</ele>
        <time>2022-09-30T09:39:07Z</time>
      </trkpt>
      <trkpt lat="42.90338" lon="3.0309">
        <ele>14</ele>
        <time>2022-09-30T09:39:13Z</time>
      </trkpt>
      <trkpt lat="42.90342" lon="3.03096">
        <ele>14</ele>
        <time>2022-09-30T09:39:19Z</time>
      </trkpt>
      <trkpt lat="42.90343" lon="3.031">
        <ele>14</ele>
        <time>2022-09-30T09:39:22Z</time>
      </trkpt>
      <trkpt lat="42.90344" lon="3.03105">
        <ele>14</ele>
        <time>2022-09-30T09:39:26Z</time>
      </trkpt>
      <trkpt lat="42.90345" lon="3.03109">
        <ele>13</ele>
        <time>2022-09-30T09:39:31Z</time>
      </trkpt>
    </trkseg>
  </trk>
</gpx>